<?xml version="1.0" encoding="UTF-8" standalone="no" ?>
<gpx xmlns="http://www.topografix.com/GPX/1/1" xmlns:xsi="http://www.w3.org/2001/XMLSchema-instance" xsi:schemaLocation="http://www.topografix.com/GPX/1/1 http://www.topografix.com/GPX/1/1/gpx.xsd" version="1.1" creator="VisuGPX - https://www.visugpx.com">
  <metadata>
    <name>étape 1</name>
  </metadata>
  <trk>
    <name><![CDATA[étape 1_1]]></name>
    <extensions>
      <line xmlns="http://www.topografix.com/GPX/gpx_style/0/2">
        <color>0000FF</color>
        <width>4</width>
      </line>
    </extensions>
    <trkseg>
      <trkpt lat="44.72994" lon="0.60912">
        <ele>110.29508972168</ele>
        <time>2019-03-30T09:32:35.158Z</time>
      </trkpt>
      <trkpt lat="44.72951" lon="0.60995">
        <ele>109.97663116455</ele>
        <time>2019-03-30T09:32:35.199Z</time>
      </trkpt>
      <trkpt lat="44.72952" lon="0.60995">
        <ele>109.97206878662</ele>
        <time>2019-03-30T09:32:35.240Z</time>
      </trkpt>
      <trkpt lat="44.72951" lon="0.60995">
        <ele>109.97277832031</ele>
        <time>2019-03-30T09:32:35.281Z</time>
      </trkpt>
      <trkpt lat="44.72878" lon="0.61137">
        <ele>112.91593933105</ele>
        <time>2019-03-30T09:32:35.342Z</time>
      </trkpt>
      <trkpt lat="44.72878" lon="0.61137">
        <ele>112.91584014893</ele>
        <time>2019-03-30T09:32:35.403Z</time>
      </trkpt>
      <trkpt lat="44.72814" lon="0.61254">
        <ele>112.64498901367</ele>
        <time>2019-03-30T09:32:35.481Z</time>
      </trkpt>
      <trkpt lat="44.72814" lon="0.61254">
        <ele>112.64479064941</ele>
        <time>2019-03-30T09:32:35.559Z</time>
      </trkpt>
      <trkpt lat="44.72756" lon="0.61361">
        <ele>114.50057983398</ele>
        <time>2019-03-30T09:32:35.652Z</time>
      </trkpt>
      <trkpt lat="44.72714" lon="0.61441">
        <ele>116.30654144287</ele>
        <time>2019-03-30T09:32:35.756Z</time>
      </trkpt>
      <trkpt lat="44.72714" lon="0.61441">
        <ele>116.3132019043</ele>
        <time>2019-03-30T09:32:35.860Z</time>
      </trkpt>
      <trkpt lat="44.72714" lon="0.61441">
        <ele>116.31061553955</ele>
        <time>2019-03-30T09:32:35.964Z</time>
      </trkpt>
      <trkpt lat="44.72714" lon="0.61441">
        <ele>116.31101989746</ele>
        <time>2019-03-30T09:32:36.068Z</time>
      </trkpt>
      <trkpt lat="44.72693" lon="0.61481">
        <ele>117.13000488281</ele>
        <time>2019-03-30T09:32:36.178Z</time>
      </trkpt>
      <trkpt lat="44.72693" lon="0.61481">
        <ele>117.12990570068</ele>
        <time>2019-03-30T09:32:36.288Z</time>
      </trkpt>
      <trkpt lat="44.72639" lon="0.61582">
        <ele>118.73936462402</ele>
        <time>2019-03-30T09:32:36.413Z</time>
      </trkpt>
      <trkpt lat="44.72585" lon="0.61734">
        <ele>124.8473739624</ele>
        <time>2019-03-30T09:32:36.557Z</time>
      </trkpt>
      <trkpt lat="44.72552" lon="0.61791">
        <ele>126.33152008057</ele>
        <time>2019-03-30T09:32:36.709Z</time>
      </trkpt>
      <trkpt lat="44.72521" lon="0.61827">
        <ele>128.0786895752</ele>
        <time>2019-03-30T09:32:36.868Z</time>
      </trkpt>
      <trkpt lat="44.72521" lon="0.61827">
        <ele>128.07829284668</ele>
        <time>2019-03-30T09:32:37.027Z</time>
      </trkpt>
      <trkpt lat="44.72454" lon="0.61904">
        <ele>131.29866027832</ele>
        <time>2019-03-30T09:32:37.200Z</time>
      </trkpt>
      <trkpt lat="44.72391" lon="0.61993">
        <ele>130.16116333008</ele>
        <time>2019-03-30T09:32:37.387Z</time>
      </trkpt>
      <trkpt lat="44.72335" lon="0.62093">
        <ele>129.34765625</ele>
        <time>2019-03-30T09:32:37.588Z</time>
      </trkpt>
      <trkpt lat="44.72335" lon="0.62094">
        <ele>129.34817504883</ele>
        <time>2019-03-30T09:32:37.789Z</time>
      </trkpt>
      <trkpt lat="44.72335" lon="0.62094">
        <ele>129.34805297852</ele>
        <time>2019-03-30T09:32:37.990Z</time>
      </trkpt>
      <trkpt lat="44.72335" lon="0.62094">
        <ele>129.34815979004</ele>
        <time>2019-03-30T09:32:38.191Z</time>
      </trkpt>
      <trkpt lat="44.72252" lon="0.62243">
        <ele>137.15765380859</ele>
        <time>2019-03-30T09:32:38.414Z</time>
      </trkpt>
      <trkpt lat="44.72029" lon="0.62637">
        <ele>136.94468688965</ele>
        <time>2019-03-30T09:32:38.694Z</time>
      </trkpt>
      <trkpt lat="44.72029" lon="0.62638">
        <ele>136.95407104492</ele>
        <time>2019-03-30T09:32:38.975Z</time>
      </trkpt>
      <trkpt lat="44.72029" lon="0.62637">
        <ele>136.94686889648</ele>
        <time>2019-03-30T09:32:39.256Z</time>
      </trkpt>
      <trkpt lat="44.71855" lon="0.62946">
        <ele>143.34730529785</ele>
        <time>2019-03-30T09:32:39.582Z</time>
      </trkpt>
      <trkpt lat="44.7176" lon="0.63148">
        <ele>135.26902770996</ele>
        <time>2019-03-30T09:32:39.935Z</time>
      </trkpt>
      <trkpt lat="44.71733" lon="0.63206">
        <ele>133.35568237305</ele>
        <time>2019-03-30T09:32:40.296Z</time>
      </trkpt>
      <trkpt lat="44.71667" lon="0.63339">
        <ele>131.24705505371</ele>
        <time>2019-03-30T09:32:40.676Z</time>
      </trkpt>
      <trkpt lat="44.71577" lon="0.63474">
        <ele>124.26728820801</ele>
        <time>2019-03-30T09:32:41.077Z</time>
      </trkpt>
      <trkpt lat="44.71563" lon="0.63512">
        <ele>122.6091003418</ele>
        <time>2019-03-30T09:32:41.482Z</time>
      </trkpt>
      <trkpt lat="44.71521" lon="0.6384">
        <ele>127.64288330078</ele>
        <time>2019-03-30T09:32:41.925Z</time>
      </trkpt>
      <trkpt lat="44.71506" lon="0.63906">
        <ele>129.11680603027</ele>
        <time>2019-03-30T09:32:42.376Z</time>
      </trkpt>
      <trkpt lat="44.71476" lon="0.6398">
        <ele>130.65492248535</ele>
        <time>2019-03-30T09:32:42.837Z</time>
      </trkpt>
      <trkpt lat="44.71435" lon="0.64079">
        <ele>130.96083068848</ele>
        <time>2019-03-30T09:32:43.311Z</time>
      </trkpt>
      <trkpt lat="44.71385" lon="0.64202">
        <ele>133.17846679688</ele>
        <time>2019-03-30T09:32:43.801Z</time>
      </trkpt>
      <trkpt lat="44.71385" lon="0.64202">
        <ele>133.1785736084</ele>
        <time>2019-03-30T09:32:44.291Z</time>
      </trkpt>
      <trkpt lat="44.71274" lon="0.64483">
        <ele>130.51950073242</ele>
        <time>2019-03-30T09:32:44.818Z</time>
      </trkpt>
      <trkpt lat="44.71145" lon="0.64827">
        <ele>127.3014755249</ele>
        <time>2019-03-30T09:32:45.389Z</time>
      </trkpt>
      <trkpt lat="44.71009" lon="0.65105">
        <ele>131.96611022949</ele>
        <time>2019-03-30T09:32:45.999Z</time>
      </trkpt>
      <trkpt lat="44.70985" lon="0.65168">
        <ele>134.01171875</ele>
        <time>2019-03-30T09:32:46.617Z</time>
      </trkpt>
      <trkpt lat="44.7096" lon="0.65342">
        <ele>146.85174560547</ele>
        <time>2019-03-30T09:32:47.255Z</time>
      </trkpt>
      <trkpt lat="44.70935" lon="0.65541">
        <ele>151.63764953613</ele>
        <time>2019-03-30T09:32:47.916Z</time>
      </trkpt>
      <trkpt lat="44.70922" lon="0.65602">
        <ele>150.7142791748</ele>
        <time>2019-03-30T09:32:48.585Z</time>
      </trkpt>
      <trkpt lat="44.70884" lon="0.65681">
        <ele>155.47692871094</ele>
        <time>2019-03-30T09:32:49.264Z</time>
      </trkpt>
      <trkpt lat="44.70841" lon="0.65722">
        <ele>157.7995300293</ele>
        <time>2019-03-30T09:32:49.952Z</time>
      </trkpt>
      <trkpt lat="44.70755" lon="0.65777">
        <ele>158.62701416016</ele>
        <time>2019-03-30T09:32:50.655Z</time>
      </trkpt>
      <trkpt lat="44.7069" lon="0.65788">
        <ele>154.72863769531</ele>
        <time>2019-03-30T09:32:51.368Z</time>
      </trkpt>
      <trkpt lat="44.70559" lon="0.65786">
        <ele>152.91976928711</ele>
        <time>2019-03-30T09:32:52.102Z</time>
      </trkpt>
      <trkpt lat="44.7049" lon="0.6581">
        <ele>149.55725097656</ele>
        <time>2019-03-30T09:32:52.848Z</time>
      </trkpt>
      <trkpt lat="44.7038" lon="0.659">
        <ele>143.21809387207</ele>
        <time>2019-03-30T09:32:53.614Z</time>
      </trkpt>
      <trkpt lat="44.70322" lon="0.6597">
        <ele>141.27561950684</ele>
        <time>2019-03-30T09:32:54.392Z</time>
      </trkpt>
      <trkpt lat="44.70243" lon="0.66064">
        <ele>136.00492858887</ele>
        <time>2019-03-30T09:32:55.187Z</time>
      </trkpt>
      <trkpt lat="44.70147" lon="0.66179">
        <ele>137.02903747559</ele>
        <time>2019-03-30T09:32:56.002Z</time>
      </trkpt>
      <trkpt lat="44.70097" lon="0.66262">
        <ele>135.89010620117</ele>
        <time>2019-03-30T09:32:56.830Z</time>
      </trkpt>
      <trkpt lat="44.70017" lon="0.66355">
        <ele>134.89260864258</ele>
        <time>2019-03-30T09:32:57.674Z</time>
      </trkpt>
      <trkpt lat="44.70017" lon="0.66355">
        <ele>134.89302062988</ele>
        <time>2019-03-30T09:32:58.518Z</time>
      </trkpt>
      <trkpt lat="44.69985" lon="0.66395">
        <ele>134.50817871094</ele>
        <time>2019-03-30T09:32:59.369Z</time>
      </trkpt>
      <trkpt lat="44.69944" lon="0.66476">
        <ele>131.83242797852</ele>
        <time>2019-03-30T09:33:00.231Z</time>
      </trkpt>
      <trkpt lat="44.69926" lon="0.66532">
        <ele>130.84393310547</ele>
        <time>2019-03-30T09:33:01.100Z</time>
      </trkpt>
      <trkpt lat="44.69817" lon="0.66836">
        <ele>126.11790466309</ele>
        <time>2019-03-30T09:33:02.008Z</time>
      </trkpt>
      <trkpt lat="44.69801" lon="0.66874">
        <ele>125.79639434814</ele>
        <time>2019-03-30T09:33:02.921Z</time>
      </trkpt>
      <trkpt lat="44.69764" lon="0.6693">
        <ele>123.07758331299</ele>
        <time>2019-03-30T09:33:03.843Z</time>
      </trkpt>
      <trkpt lat="44.69764" lon="0.6693">
        <ele>123.07768249512</ele>
        <time>2019-03-30T09:33:04.765Z</time>
      </trkpt>
      <trkpt lat="44.69576" lon="0.67215">
        <ele>123.79496002197</ele>
        <time>2019-03-30T09:33:05.731Z</time>
      </trkpt>
      <trkpt lat="44.69517" lon="0.67356">
        <ele>111.14414978027</ele>
        <time>2019-03-30T09:33:06.716Z</time>
      </trkpt>
      <trkpt lat="44.69471" lon="0.67423">
        <ele>108.24540710449</ele>
        <time>2019-03-30T09:33:07.711Z</time>
      </trkpt>
      <trkpt lat="44.69391" lon="0.67472">
        <ele>104.70003509521</ele>
        <time>2019-03-30T09:33:08.720Z</time>
      </trkpt>
      <trkpt lat="44.69389" lon="0.67473">
        <ele>104.59705352783</ele>
        <time>2019-03-30T09:33:09.730Z</time>
      </trkpt>
      <trkpt lat="44.69302" lon="0.67529">
        <ele>97.537803649902</ele>
        <time>2019-03-30T09:33:10.755Z</time>
      </trkpt>
      <trkpt lat="44.69302" lon="0.67529">
        <ele>97.535835266113</ele>
        <time>2019-03-30T09:33:11.780Z</time>
      </trkpt>
      <trkpt lat="44.69301" lon="0.67529">
        <ele>97.451530456543</ele>
        <time>2019-03-30T09:33:12.805Z</time>
      </trkpt>
      <trkpt lat="44.69301" lon="0.67529">
        <ele>97.444465637207</ele>
        <time>2019-03-30T09:33:13.830Z</time>
      </trkpt>
      <trkpt lat="44.69301" lon="0.67529">
        <ele>97.443260192871</ele>
        <time>2019-03-30T09:33:14.855Z</time>
      </trkpt>
      <trkpt lat="44.69144" lon="0.67631">
        <ele>89.235328674316</ele>
        <time>2019-03-30T09:33:15.908Z</time>
      </trkpt>
      <trkpt lat="44.69064" lon="0.67704">
        <ele>84.17041015625</ele>
        <time>2019-03-30T09:33:16.976Z</time>
      </trkpt>
      <trkpt lat="44.69001" lon="0.67772">
        <ele>82.03604888916</ele>
        <time>2019-03-30T09:33:18.057Z</time>
      </trkpt>
      <trkpt lat="44.69032" lon="0.67805">
        <ele>82.711273193359</ele>
        <time>2019-03-30T09:33:19.144Z</time>
      </trkpt>
      <trkpt lat="44.69059" lon="0.67816">
        <ele>82.786628723145</ele>
        <time>2019-03-30T09:33:20.236Z</time>
      </trkpt>
      <trkpt lat="44.69082" lon="0.67819">
        <ele>82.979614257812</ele>
        <time>2019-03-30T09:33:21.331Z</time>
      </trkpt>
      <trkpt lat="44.6912" lon="0.67799">
        <ele>84.11124420166</ele>
        <time>2019-03-30T09:33:22.433Z</time>
      </trkpt>
      <trkpt lat="44.6912" lon="0.67799">
        <ele>84.111442565918</ele>
        <time>2019-03-30T09:33:23.535Z</time>
      </trkpt>
      <trkpt lat="44.69144" lon="0.6781">
        <ele>84.491561889648</ele>
        <time>2019-03-30T09:33:24.641Z</time>
      </trkpt>
      <trkpt lat="44.69215" lon="0.67955">
        <ele>84.891151428223</ele>
        <time>2019-03-30T09:33:25.767Z</time>
      </trkpt>
      <trkpt lat="44.69308" lon="0.68039">
        <ele>88.926780700684</ele>
        <time>2019-03-30T09:33:26.910Z</time>
      </trkpt>
      <trkpt lat="44.69421" lon="0.68186">
        <ele>88.641563415527</ele>
        <time>2019-03-30T09:33:28.078Z</time>
      </trkpt>
      <trkpt lat="44.6943" lon="0.68196">
        <ele>88.152412414551</ele>
        <time>2019-03-30T09:33:29.248Z</time>
      </trkpt>
      <trkpt lat="44.69556" lon="0.68241">
        <ele>87.72673034668</ele>
        <time>2019-03-30T09:33:30.439Z</time>
      </trkpt>
      <trkpt lat="44.69641" lon="0.68185">
        <ele>94.081504821777</ele>
        <time>2019-03-30T09:33:31.645Z</time>
      </trkpt>
      <trkpt lat="44.69681" lon="0.6818">
        <ele>95.539985656738</ele>
        <time>2019-03-30T09:33:32.857Z</time>
      </trkpt>
      <trkpt lat="44.69739" lon="0.68195">
        <ele>96.631469726562</ele>
        <time>2019-03-30T09:33:34.079Z</time>
      </trkpt>
      <trkpt lat="44.69858" lon="0.68253">
        <ele>90.613098144531</ele>
        <time>2019-03-30T09:33:35.321Z</time>
      </trkpt>
      <trkpt lat="44.69858" lon="0.68253">
        <ele>90.61279296875</ele>
        <time>2019-03-30T09:33:36.563Z</time>
      </trkpt>
      <trkpt lat="44.6986" lon="0.68253">
        <ele>90.574172973633</ele>
        <time>2019-03-30T09:33:37.805Z</time>
      </trkpt>
      <trkpt lat="44.69959" lon="0.68306">
        <ele>89.101524353027</ele>
        <time>2019-03-30T09:33:39.064Z</time>
      </trkpt>
      <trkpt lat="44.70012" lon="0.68344">
        <ele>89.35897064209</ele>
        <time>2019-03-30T09:33:40.333Z</time>
      </trkpt>
      <trkpt lat="44.70096" lon="0.68432">
        <ele>86.912322998047</ele>
        <time>2019-03-30T09:33:41.618Z</time>
      </trkpt>
      <trkpt lat="44.70109" lon="0.68447">
        <ele>86.539024353027</ele>
        <time>2019-03-30T09:33:42.906Z</time>
      </trkpt>
      <trkpt lat="44.7016" lon="0.68552">
        <ele>85.977127075195</ele>
        <time>2019-03-30T09:33:44.209Z</time>
      </trkpt>
      <trkpt lat="44.70167" lon="0.68585">
        <ele>88.014404296875</ele>
        <time>2019-03-30T09:33:45.516Z</time>
      </trkpt>
      <trkpt lat="44.70163" lon="0.68607">
        <ele>88.748924255371</ele>
        <time>2019-03-30T09:33:46.825Z</time>
      </trkpt>
      <trkpt lat="44.70155" lon="0.68623">
        <ele>88.317695617676</ele>
        <time>2019-03-30T09:33:48.136Z</time>
      </trkpt>
      <trkpt lat="44.70074" lon="0.68769">
        <ele>88.964881896973</ele>
        <time>2019-03-30T09:33:49.469Z</time>
      </trkpt>
      <trkpt lat="44.70071" lon="0.6879">
        <ele>89.312843322754</ele>
        <time>2019-03-30T09:33:50.804Z</time>
      </trkpt>
      <trkpt lat="44.70075" lon="0.68809">
        <ele>89.913299560547</ele>
        <time>2019-03-30T09:33:52.141Z</time>
      </trkpt>
      <trkpt lat="44.70222" lon="0.68995">
        <ele>104.3371963501</ele>
        <time>2019-03-30T09:33:53.510Z</time>
      </trkpt>
      <trkpt lat="44.70349" lon="0.69323">
        <ele>118.70409393311</ele>
        <time>2019-03-30T09:33:54.922Z</time>
      </trkpt>
      <trkpt lat="44.70372" lon="0.69386">
        <ele>121.95469665527</ele>
        <time>2019-03-30T09:33:56.342Z</time>
      </trkpt>
      <trkpt lat="44.70375" lon="0.69422">
        <ele>122.05905151367</ele>
        <time>2019-03-30T09:33:57.766Z</time>
      </trkpt>
      <trkpt lat="44.70362" lon="0.69641">
        <ele>124.33776855469</ele>
        <time>2019-03-30T09:33:59.215Z</time>
      </trkpt>
      <trkpt lat="44.70362" lon="0.69641">
        <ele>124.33837127686</ele>
        <time>2019-03-30T09:34:00.664Z</time>
      </trkpt>
      <trkpt lat="44.70364" lon="0.69708">
        <ele>123.72632598877</ele>
        <time>2019-03-30T09:34:02.121Z</time>
      </trkpt>
      <trkpt lat="44.7037" lon="0.69762">
        <ele>124.01755523682</ele>
        <time>2019-03-30T09:34:03.584Z</time>
      </trkpt>
      <trkpt lat="44.7037" lon="0.69764">
        <ele>124.03829956055</ele>
        <time>2019-03-30T09:34:05.047Z</time>
      </trkpt>
      <trkpt lat="44.7037" lon="0.69764">
        <ele>124.03817749023</ele>
        <time>2019-03-30T09:34:06.510Z</time>
      </trkpt>
      <trkpt lat="44.7037" lon="0.69764">
        <ele>124.03817749023</ele>
        <time>2019-03-30T09:34:07.973Z</time>
      </trkpt>
      <trkpt lat="44.70408" lon="0.70104">
        <ele>131.86386108398</ele>
        <time>2019-03-30T09:34:09.475Z</time>
      </trkpt>
      <trkpt lat="44.70396" lon="0.70176">
        <ele>132.48686218262</ele>
        <time>2019-03-30T09:34:10.986Z</time>
      </trkpt>
      <trkpt lat="44.70364" lon="0.70321">
        <ele>133.60319519043</ele>
        <time>2019-03-30T09:34:12.514Z</time>
      </trkpt>
      <trkpt lat="44.70357" lon="0.70352">
        <ele>131.6658782959</ele>
        <time>2019-03-30T09:34:14.046Z</time>
      </trkpt>
      <trkpt lat="44.70346" lon="0.70401">
        <ele>128.78509521484</ele>
        <time>2019-03-30T09:34:15.584Z</time>
      </trkpt>
      <trkpt lat="44.70331" lon="0.70505">
        <ele>126.69135284424</ele>
        <time>2019-03-30T09:34:17.134Z</time>
      </trkpt>
      <trkpt lat="44.7034" lon="0.70567">
        <ele>130.4450378418</ele>
        <time>2019-03-30T09:34:18.691Z</time>
      </trkpt>
      <trkpt lat="44.70473" lon="0.70866">
        <ele>136.67321777344</ele>
        <time>2019-03-30T09:34:20.288Z</time>
      </trkpt>
      <trkpt lat="44.70504" lon="0.70916">
        <ele>138.76539611816</ele>
        <time>2019-03-30T09:34:21.893Z</time>
      </trkpt>
      <trkpt lat="44.70603" lon="0.70968">
        <ele>142.55679321289</ele>
        <time>2019-03-30T09:34:23.515Z</time>
      </trkpt>
      <trkpt lat="44.70642" lon="0.71006">
        <ele>143.42486572266</ele>
        <time>2019-03-30T09:34:25.144Z</time>
      </trkpt>
      <trkpt lat="44.70664" lon="0.71054">
        <ele>144.00411987305</ele>
        <time>2019-03-30T09:34:26.780Z</time>
      </trkpt>
      <trkpt lat="44.7067" lon="0.7109">
        <ele>144.44178771973</ele>
        <time>2019-03-30T09:34:28.420Z</time>
      </trkpt>
      <trkpt lat="44.70661" lon="0.71379">
        <ele>140.44779968262</ele>
        <time>2019-03-30T09:34:30.093Z</time>
      </trkpt>
      <trkpt lat="44.70689" lon="0.71511">
        <ele>141.32272338867</ele>
        <time>2019-03-30T09:34:31.782Z</time>
      </trkpt>
      <trkpt lat="44.70692" lon="0.71529">
        <ele>141.46513366699</ele>
        <time>2019-03-30T09:34:33.473Z</time>
      </trkpt>
      <trkpt lat="44.70693" lon="0.71531">
        <ele>141.47885131836</ele>
        <time>2019-03-30T09:34:35.164Z</time>
      </trkpt>
      <trkpt lat="44.70693" lon="0.71531">
        <ele>141.47959899902</ele>
        <time>2019-03-30T09:34:36.855Z</time>
      </trkpt>
      <trkpt lat="44.70722" lon="0.71711">
        <ele>140.22764587402</ele>
        <time>2019-03-30T09:34:38.567Z</time>
      </trkpt>
      <trkpt lat="44.70722" lon="0.71711">
        <ele>140.22804260254</ele>
        <time>2019-03-30T09:34:40.279Z</time>
      </trkpt>
      <trkpt lat="44.70744" lon="0.71905">
        <ele>138.5365447998</ele>
        <time>2019-03-30T09:34:42.014Z</time>
      </trkpt>
      <trkpt lat="44.70744" lon="0.71905">
        <ele>138.5372467041</ele>
        <time>2019-03-30T09:34:43.749Z</time>
      </trkpt>
      <trkpt lat="44.70736" lon="0.7198">
        <ele>136.81341552734</ele>
        <time>2019-03-30T09:34:45.492Z</time>
      </trkpt>
      <trkpt lat="44.70702" lon="0.72082">
        <ele>138.62733459473</ele>
        <time>2019-03-30T09:34:47.248Z</time>
      </trkpt>
      <trkpt lat="44.70707" lon="0.72118">
        <ele>139.28875732422</ele>
        <time>2019-03-30T09:34:49.008Z</time>
      </trkpt>
      <trkpt lat="44.70748" lon="0.72179">
        <ele>136.26007080078</ele>
        <time>2019-03-30T09:34:50.778Z</time>
      </trkpt>
      <trkpt lat="44.70774" lon="0.72207">
        <ele>134.11012268066</ele>
        <time>2019-03-30T09:34:52.553Z</time>
      </trkpt>
      <trkpt lat="44.70774" lon="0.72207">
        <ele>134.10961914062</ele>
        <time>2019-03-30T09:34:54.328Z</time>
      </trkpt>
      <trkpt lat="44.7088" lon="0.72319">
        <ele>131.81280517578</ele>
        <time>2019-03-30T09:34:56.124Z</time>
      </trkpt>
      <trkpt lat="44.70935" lon="0.72367">
        <ele>131.22142028809</ele>
        <time>2019-03-30T09:34:57.931Z</time>
      </trkpt>
      <trkpt lat="44.71012" lon="0.72382">
        <ele>129.58921813965</ele>
        <time>2019-03-30T09:34:59.750Z</time>
      </trkpt>
      <trkpt lat="44.71018" lon="0.72383">
        <ele>129.4478302002</ele>
        <time>2019-03-30T09:35:01.570Z</time>
      </trkpt>
      <trkpt lat="44.71018" lon="0.72383">
        <ele>129.44761657715</ele>
        <time>2019-03-30T09:35:03.390Z</time>
      </trkpt>
      <trkpt lat="44.71096" lon="0.72397">
        <ele>127.80889129639</ele>
        <time>2019-03-30T09:35:05.223Z</time>
      </trkpt>
      <trkpt lat="44.71256" lon="0.7246">
        <ele>121.22565460205</ele>
        <time>2019-03-30T09:35:07.082Z</time>
      </trkpt>
      <trkpt lat="44.71256" lon="0.7246">
        <ele>121.2254486084</ele>
        <time>2019-03-30T09:35:08.941Z</time>
      </trkpt>
      <trkpt lat="44.71261" lon="0.72461">
        <ele>121.08405303955</ele>
        <time>2019-03-30T09:35:10.801Z</time>
      </trkpt>
      <trkpt lat="44.71188" lon="0.72666">
        <ele>121.38012695312</ele>
        <time>2019-03-30T09:35:12.687Z</time>
      </trkpt>
      <trkpt lat="44.71127" lon="0.73016">
        <ele>122.47164154053</ele>
        <time>2019-03-30T09:35:14.614Z</time>
      </trkpt>
      <trkpt lat="44.71097" lon="0.73098">
        <ele>122.18962097168</ele>
        <time>2019-03-30T09:35:16.552Z</time>
      </trkpt>
      <trkpt lat="44.71011" lon="0.73251">
        <ele>120.67440032959</ele>
        <time>2019-03-30T09:35:18.512Z</time>
      </trkpt>
      <trkpt lat="44.71011" lon="0.73251">
        <ele>120.67449951172</ele>
        <time>2019-03-30T09:35:20.472Z</time>
      </trkpt>
      <trkpt lat="44.70992" lon="0.73276">
        <ele>121.20227050781</ele>
        <time>2019-03-30T09:35:22.436Z</time>
      </trkpt>
      <trkpt lat="44.70865" lon="0.73347">
        <ele>122.48743438721</ele>
        <time>2019-03-30T09:35:24.422Z</time>
      </trkpt>
      <trkpt lat="44.70825" lon="0.73371">
        <ele>122.5472869873</ele>
        <time>2019-03-30T09:35:26.415Z</time>
      </trkpt>
      <trkpt lat="44.70825" lon="0.73371">
        <ele>122.54739379883</ele>
        <time>2019-03-30T09:35:28.408Z</time>
      </trkpt>
      <trkpt lat="44.70807" lon="0.73378">
        <ele>122.75325012207</ele>
        <time>2019-03-30T09:35:30.404Z</time>
      </trkpt>
      <trkpt lat="44.70609" lon="0.7346">
        <ele>129.26588439941</ele>
        <time>2019-03-30T09:35:32.433Z</time>
      </trkpt>
      <trkpt lat="44.70609" lon="0.7346">
        <ele>129.27311706543</ele>
        <time>2019-03-30T09:35:34.462Z</time>
      </trkpt>
      <trkpt lat="44.70608" lon="0.7346">
        <ele>129.33708190918</ele>
        <time>2019-03-30T09:35:36.491Z</time>
      </trkpt>
      <trkpt lat="44.70608" lon="0.7346">
        <ele>129.35063171387</ele>
        <time>2019-03-30T09:35:38.520Z</time>
      </trkpt>
      <trkpt lat="44.70608" lon="0.7346">
        <ele>129.35003662109</ele>
        <time>2019-03-30T09:35:40.549Z</time>
      </trkpt>
      <trkpt lat="44.70532" lon="0.73492">
        <ele>132.56086730957</ele>
        <time>2019-03-30T09:35:42.591Z</time>
      </trkpt>
      <trkpt lat="44.70414" lon="0.736">
        <ele>131.40441894531</ele>
        <time>2019-03-30T09:35:44.656Z</time>
      </trkpt>
      <trkpt lat="44.70414" lon="0.736">
        <ele>131.40461730957</ele>
        <time>2019-03-30T09:35:46.721Z</time>
      </trkpt>
      <trkpt lat="44.70379" lon="0.7363">
        <ele>131.86138916016</ele>
        <time>2019-03-30T09:35:48.792Z</time>
      </trkpt>
      <trkpt lat="44.70379" lon="0.7363">
        <ele>131.86158752441</ele>
        <time>2019-03-30T09:35:50.863Z</time>
      </trkpt>
      <trkpt lat="44.70317" lon="0.737">
        <ele>128.08563232422</ele>
        <time>2019-03-30T09:35:52.947Z</time>
      </trkpt>
      <trkpt lat="44.7023" lon="0.73838">
        <ele>125.72308349609</ele>
        <time>2019-03-30T09:35:55.052Z</time>
      </trkpt>
      <trkpt lat="44.7023" lon="0.73838">
        <ele>125.72298431396</ele>
        <time>2019-03-30T09:35:57.157Z</time>
      </trkpt>
      <trkpt lat="44.70132" lon="0.73959">
        <ele>124.8563079834</ele>
        <time>2019-03-30T09:35:59.283Z</time>
      </trkpt>
      <trkpt lat="44.70069" lon="0.7401">
        <ele>124.39039611816</ele>
        <time>2019-03-30T09:36:01.420Z</time>
      </trkpt>
      <trkpt lat="44.70015" lon="0.74054">
        <ele>123.48536682129</ele>
        <time>2019-03-30T09:36:03.567Z</time>
      </trkpt>
      <trkpt lat="44.70015" lon="0.74054">
        <ele>123.48516082764</ele>
        <time>2019-03-30T09:36:05.714Z</time>
      </trkpt>
      <trkpt lat="44.70005" lon="0.74061">
        <ele>123.09079742432</ele>
        <time>2019-03-30T09:36:07.863Z</time>
      </trkpt>
      <trkpt lat="44.69961" lon="0.741">
        <ele>120.64335632324</ele>
        <time>2019-03-30T09:36:10.020Z</time>
      </trkpt>
      <trkpt lat="44.6992" lon="0.74163">
        <ele>119</ele>
        <time>2019-03-30T09:36:12.187Z</time>
      </trkpt>
      <trkpt lat="44.69877" lon="0.7423">
        <ele>118.28569793701</ele>
        <time>2019-03-30T09:36:14.364Z</time>
      </trkpt>
      <trkpt lat="44.69783" lon="0.74398">
        <ele>115.77932739258</ele>
        <time>2019-03-30T09:36:16.566Z</time>
      </trkpt>
      <trkpt lat="44.69751" lon="0.74421">
        <ele>114.74953460693</ele>
        <time>2019-03-30T09:36:18.774Z</time>
      </trkpt>
      <trkpt lat="44.69691" lon="0.74443">
        <ele>113.84642028809</ele>
        <time>2019-03-30T09:36:20.992Z</time>
      </trkpt>
      <trkpt lat="44.69666" lon="0.7446">
        <ele>113.24604034424</ele>
        <time>2019-03-30T09:36:23.214Z</time>
      </trkpt>
      <trkpt lat="44.69666" lon="0.7446">
        <ele>113.24584197998</ele>
        <time>2019-03-30T09:36:25.436Z</time>
      </trkpt>
      <trkpt lat="44.69648" lon="0.7448">
        <ele>112.5509262085</ele>
        <time>2019-03-30T09:36:27.662Z</time>
      </trkpt>
      <trkpt lat="44.69594" lon="0.74601">
        <ele>112.25923156738</ele>
        <time>2019-03-30T09:36:29.904Z</time>
      </trkpt>
      <trkpt lat="44.69594" lon="0.74603">
        <ele>112.26955413818</ele>
        <time>2019-03-30T09:36:32.146Z</time>
      </trkpt>
      <trkpt lat="44.69594" lon="0.74603">
        <ele>112.26928710938</ele>
        <time>2019-03-30T09:36:34.388Z</time>
      </trkpt>
      <trkpt lat="44.69594" lon="0.74603">
        <ele>112.26898956299</ele>
        <time>2019-03-30T09:36:36.630Z</time>
      </trkpt>
      <trkpt lat="44.69547" lon="0.7471">
        <ele>118.22507476807</ele>
        <time>2019-03-30T09:36:38.886Z</time>
      </trkpt>
      <trkpt lat="44.69452" lon="0.74878">
        <ele>124.61894989014</ele>
        <time>2019-03-30T09:36:41.167Z</time>
      </trkpt>
      <trkpt lat="44.69451" lon="0.74885">
        <ele>124.80875396729</ele>
        <time>2019-03-30T09:36:43.449Z</time>
      </trkpt>
      <trkpt lat="44.6945" lon="0.74887">
        <ele>124.88076019287</ele>
        <time>2019-03-30T09:36:45.731Z</time>
      </trkpt>
      <trkpt lat="44.6945" lon="0.74887">
        <ele>124.88849639893</ele>
        <time>2019-03-30T09:36:48.013Z</time>
      </trkpt>
      <trkpt lat="44.6945" lon="0.74887">
        <ele>124.88759613037</ele>
        <time>2019-03-30T09:36:50.295Z</time>
      </trkpt>
      <trkpt lat="44.69429" lon="0.74983">
        <ele>128.84860229492</ele>
        <time>2019-03-30T09:36:52.588Z</time>
      </trkpt>
      <trkpt lat="44.69372" lon="0.75121">
        <ele>129.95320129395</ele>
        <time>2019-03-30T09:36:54.900Z</time>
      </trkpt>
      <trkpt lat="44.6942" lon="0.75118">
        <ele>128.79487609863</ele>
        <time>2019-03-30T09:36:57.219Z</time>
      </trkpt>
      <trkpt lat="44.69422" lon="0.75118">
        <ele>128.74249267578</ele>
        <time>2019-03-30T09:36:59.539Z</time>
      </trkpt>
      <trkpt lat="44.69422" lon="0.75118">
        <ele>128.74243164062</ele>
        <time>2019-03-30T09:37:01.859Z</time>
      </trkpt>
      <trkpt lat="44.69424" lon="0.75118">
        <ele>128.71020507812</ele>
        <time>2019-03-30T09:37:04.179Z</time>
      </trkpt>
      <trkpt lat="44.69424" lon="0.75118">
        <ele>128.7057800293</ele>
        <time>2019-03-30T09:37:06.499Z</time>
      </trkpt>
      <trkpt lat="44.69424" lon="0.75118">
        <ele>128.70556640625</ele>
        <time>2019-03-30T09:37:08.819Z</time>
      </trkpt>
      <trkpt lat="44.69466" lon="0.75121">
        <ele>128.09349060059</ele>
        <time>2019-03-30T09:37:11.146Z</time>
      </trkpt>
      <trkpt lat="44.69504" lon="0.75246">
        <ele>124.60650634766</ele>
        <time>2019-03-30T09:37:13.488Z</time>
      </trkpt>
      <trkpt lat="44.6952" lon="0.75282">
        <ele>125.45609283447</ele>
        <time>2019-03-30T09:37:15.835Z</time>
      </trkpt>
      <trkpt lat="44.69551" lon="0.75308">
        <ele>126.50940704346</ele>
        <time>2019-03-30T09:37:18.188Z</time>
      </trkpt>
      <trkpt lat="44.69552" lon="0.75309">
        <ele>126.55084228516</ele>
        <time>2019-03-30T09:37:20.541Z</time>
      </trkpt>
      <trkpt lat="44.69552" lon="0.75309">
        <ele>126.55671691895</ele>
        <time>2019-03-30T09:37:22.894Z</time>
      </trkpt>
      <trkpt lat="44.69552" lon="0.75309">
        <ele>126.55611419678</ele>
        <time>2019-03-30T09:37:25.247Z</time>
      </trkpt>
      <trkpt lat="44.69653" lon="0.75395">
        <ele>130.37271118164</ele>
        <time>2019-03-30T09:37:27.619Z</time>
      </trkpt>
      <trkpt lat="44.69707" lon="0.75444">
        <ele>133.3564453125</ele>
        <time>2019-03-30T09:37:30.001Z</time>
      </trkpt>
      <trkpt lat="44.69731" lon="0.75476">
        <ele>134</ele>
        <time>2019-03-30T09:37:32.388Z</time>
      </trkpt>
      <trkpt lat="44.69761" lon="0.75513">
        <ele>134</ele>
        <time>2019-03-30T09:37:34.782Z</time>
      </trkpt>
      <trkpt lat="44.69762" lon="0.75514">
        <ele>134</ele>
        <time>2019-03-30T09:37:37.176Z</time>
      </trkpt>
      <trkpt lat="44.69762" lon="0.75514">
        <ele>134</ele>
        <time>2019-03-30T09:37:39.570Z</time>
      </trkpt>
      <trkpt lat="44.69762" lon="0.75514">
        <ele>134</ele>
        <time>2019-03-30T09:37:41.964Z</time>
      </trkpt>
      <trkpt lat="44.69782" lon="0.75538">
        <ele>134</ele>
        <time>2019-03-30T09:37:44.362Z</time>
      </trkpt>
      <trkpt lat="44.69807" lon="0.75558">
        <ele>133.0873260498</ele>
        <time>2019-03-30T09:37:46.765Z</time>
      </trkpt>
      <trkpt lat="44.69897" lon="0.75584">
        <ele>132.33801269531</ele>
        <time>2019-03-30T09:37:49.183Z</time>
      </trkpt>
      <trkpt lat="44.69955" lon="0.75606">
        <ele>135.20722961426</ele>
        <time>2019-03-30T09:37:51.610Z</time>
      </trkpt>
      <trkpt lat="44.69966" lon="0.75618">
        <ele>136.59101867676</ele>
        <time>2019-03-30T09:37:54.039Z</time>
      </trkpt>
      <trkpt lat="44.69986" lon="0.75671">
        <ele>140.49153137207</ele>
        <time>2019-03-30T09:37:56.475Z</time>
      </trkpt>
      <trkpt lat="44.70005" lon="0.75694">
        <ele>142.61628723145</ele>
        <time>2019-03-30T09:37:58.915Z</time>
      </trkpt>
      <trkpt lat="44.7008" lon="0.75778">
        <ele>143.04768371582</ele>
        <time>2019-03-30T09:38:01.371Z</time>
      </trkpt>
      <trkpt lat="44.7028" lon="0.76044">
        <ele>143.63565063477</ele>
        <time>2019-03-30T09:38:03.871Z</time>
      </trkpt>
      <trkpt lat="44.70281" lon="0.76045">
        <ele>143.68649291992</ele>
        <time>2019-03-30T09:38:06.371Z</time>
      </trkpt>
      <trkpt lat="44.70281" lon="0.76045">
        <ele>143.68774414062</ele>
        <time>2019-03-30T09:38:08.871Z</time>
      </trkpt>
      <trkpt lat="44.70281" lon="0.76045">
        <ele>143.68684387207</ele>
        <time>2019-03-30T09:38:11.371Z</time>
      </trkpt>
      <trkpt lat="44.70283" lon="0.76048">
        <ele>143.77503967285</ele>
        <time>2019-03-30T09:38:13.871Z</time>
      </trkpt>
      <trkpt lat="44.70317" lon="0.76111">
        <ele>142.58723449707</ele>
        <time>2019-03-30T09:38:16.380Z</time>
      </trkpt>
      <trkpt lat="44.70345" lon="0.76188">
        <ele>142.81330871582</ele>
        <time>2019-03-30T09:38:18.899Z</time>
      </trkpt>
      <trkpt lat="44.7055" lon="0.76362">
        <ele>148.56292724609</ele>
        <time>2019-03-30T09:38:21.457Z</time>
      </trkpt>
      <trkpt lat="44.70594" lon="0.76416">
        <ele>152.07710266113</ele>
        <time>2019-03-30T09:38:24.024Z</time>
      </trkpt>
      <trkpt lat="44.7065" lon="0.76445">
        <ele>155.46336364746</ele>
        <time>2019-03-30T09:38:26.601Z</time>
      </trkpt>
      <trkpt lat="44.7065" lon="0.76445">
        <ele>155.46296691895</ele>
        <time>2019-03-30T09:38:29.178Z</time>
      </trkpt>
      <trkpt lat="44.70712" lon="0.76474">
        <ele>159.31938171387</ele>
        <time>2019-03-30T09:38:31.765Z</time>
      </trkpt>
      <trkpt lat="44.7073" lon="0.76491">
        <ele>160.56802368164</ele>
        <time>2019-03-30T09:38:34.355Z</time>
      </trkpt>
      <trkpt lat="44.70736" lon="0.76518">
        <ele>162.55424499512</ele>
        <time>2019-03-30T09:38:36.949Z</time>
      </trkpt>
      <trkpt lat="44.70728" lon="0.76577">
        <ele>170.32206726074</ele>
        <time>2019-03-30T09:38:39.550Z</time>
      </trkpt>
      <trkpt lat="44.70647" lon="0.76659">
        <ele>184.0032043457</ele>
        <time>2019-03-30T09:38:42.167Z</time>
      </trkpt>
      <trkpt lat="44.70574" lon="0.76673">
        <ele>180.18844604492</ele>
        <time>2019-03-30T09:38:44.795Z</time>
      </trkpt>
      <trkpt lat="44.70528" lon="0.76718">
        <ele>180.91915893555</ele>
        <time>2019-03-30T09:38:47.432Z</time>
      </trkpt>
      <trkpt lat="44.70518" lon="0.76751">
        <ele>183.28941345215</ele>
        <time>2019-03-30T09:38:50.073Z</time>
      </trkpt>
      <trkpt lat="44.70517" lon="0.76753">
        <ele>183.41018676758</ele>
        <time>2019-03-30T09:38:52.715Z</time>
      </trkpt>
      <trkpt lat="44.70517" lon="0.76753">
        <ele>183.42851257324</ele>
        <time>2019-03-30T09:38:55.357Z</time>
      </trkpt>
      <trkpt lat="44.70517" lon="0.76753">
        <ele>183.42840576172</ele>
        <time>2019-03-30T09:38:57.999Z</time>
      </trkpt>
      <trkpt lat="44.70517" lon="0.76754">
        <ele>183.46501159668</ele>
        <time>2019-03-30T09:39:00.641Z</time>
      </trkpt>
      <trkpt lat="44.70507" lon="0.76821">
        <ele>188.79257202148</ele>
        <time>2019-03-30T09:39:03.291Z</time>
      </trkpt>
      <trkpt lat="44.70475" lon="0.76876">
        <ele>191.296875</ele>
        <time>2019-03-30T09:39:05.949Z</time>
      </trkpt>
      <trkpt lat="44.70469" lon="0.76918">
        <ele>192.14868164062</ele>
        <time>2019-03-30T09:39:08.612Z</time>
      </trkpt>
      <trkpt lat="44.70473" lon="0.76931">
        <ele>192.37394714355</ele>
        <time>2019-03-30T09:39:11.276Z</time>
      </trkpt>
      <trkpt lat="44.70689" lon="0.77224">
        <ele>189.03964233398</ele>
        <time>2019-03-30T09:39:13.988Z</time>
      </trkpt>
      <trkpt lat="44.70715" lon="0.77244">
        <ele>189.58422851562</ele>
        <time>2019-03-30T09:39:16.705Z</time>
      </trkpt>
      <trkpt lat="44.70772" lon="0.77261">
        <ele>193.44128417969</ele>
        <time>2019-03-30T09:39:19.431Z</time>
      </trkpt>
      <trkpt lat="44.70807" lon="0.77265">
        <ele>195.66865539551</ele>
        <time>2019-03-30T09:39:22.163Z</time>
      </trkpt>
      <trkpt lat="44.70872" lon="0.77292">
        <ele>195.68951416016</ele>
        <time>2019-03-30T09:39:24.906Z</time>
      </trkpt>
      <trkpt lat="44.70929" lon="0.77288">
        <ele>197.53692626953</ele>
        <time>2019-03-30T09:39:27.658Z</time>
      </trkpt>
      <trkpt lat="44.70988" lon="0.77288">
        <ele>197.62048339844</ele>
        <time>2019-03-30T09:39:30.419Z</time>
      </trkpt>
      <trkpt lat="44.71033" lon="0.77328">
        <ele>198.1900177002</ele>
        <time>2019-03-30T09:39:33.189Z</time>
      </trkpt>
      <trkpt lat="44.71034" lon="0.77329">
        <ele>198.2294921875</ele>
        <time>2019-03-30T09:39:35.959Z</time>
      </trkpt>
      <trkpt lat="44.71034" lon="0.7733">
        <ele>198.2373046875</ele>
        <time>2019-03-30T09:39:38.729Z</time>
      </trkpt>
      <trkpt lat="44.71034" lon="0.7733">
        <ele>198.23699951172</ele>
        <time>2019-03-30T09:39:41.499Z</time>
      </trkpt>
      <trkpt lat="44.71101" lon="0.7739">
        <ele>202.13966369629</ele>
        <time>2019-03-30T09:39:44.282Z</time>
      </trkpt>
      <trkpt lat="44.71149" lon="0.77424">
        <ele>205.90985107422</ele>
        <time>2019-03-30T09:39:47.073Z</time>
      </trkpt>
      <trkpt lat="44.71149" lon="0.77424">
        <ele>205.90924072266</ele>
        <time>2019-03-30T09:39:49.864Z</time>
      </trkpt>
      <trkpt lat="44.71242" lon="0.77482">
        <ele>210.75395202637</ele>
        <time>2019-03-30T09:39:52.672Z</time>
      </trkpt>
      <trkpt lat="44.7132" lon="0.7751">
        <ele>209.28521728516</ele>
        <time>2019-03-30T09:39:55.493Z</time>
      </trkpt>
      <trkpt lat="44.71377" lon="0.77577">
        <ele>206.31147766113</ele>
        <time>2019-03-30T09:39:58.326Z</time>
      </trkpt>
      <trkpt lat="44.71436" lon="0.77649">
        <ele>203.43304443359</ele>
        <time>2019-03-30T09:40:01.171Z</time>
      </trkpt>
      <trkpt lat="44.71441" lon="0.77654">
        <ele>203.30194091797</ele>
        <time>2019-03-30T09:40:04.017Z</time>
      </trkpt>
      <trkpt lat="44.71441" lon="0.77654">
        <ele>203.30192565918</ele>
        <time>2019-03-30T09:40:06.863Z</time>
      </trkpt>
      <trkpt lat="44.71442" lon="0.77655">
        <ele>203.27369689941</ele>
        <time>2019-03-30T09:40:09.709Z</time>
      </trkpt>
      <trkpt lat="44.71442" lon="0.77655">
        <ele>203.2677154541</ele>
        <time>2019-03-30T09:40:12.555Z</time>
      </trkpt>
      <trkpt lat="44.71442" lon="0.77655">
        <ele>203.26812744141</ele>
        <time>2019-03-30T09:40:15.401Z</time>
      </trkpt>
      <trkpt lat="44.71539" lon="0.7773">
        <ele>203.39906311035</ele>
        <time>2019-03-30T09:40:18.265Z</time>
      </trkpt>
      <trkpt lat="44.71559" lon="0.77744">
        <ele>203.57926940918</ele>
        <time>2019-03-30T09:40:21.133Z</time>
      </trkpt>
      <trkpt lat="44.71587" lon="0.77785">
        <ele>204.82810974121</ele>
        <time>2019-03-30T09:40:24.007Z</time>
      </trkpt>
      <trkpt lat="44.71639" lon="0.7782">
        <ele>204.72579956055</ele>
        <time>2019-03-30T09:40:26.890Z</time>
      </trkpt>
      <trkpt lat="44.71623" lon="0.77876">
        <ele>204.96385192871</ele>
        <time>2019-03-30T09:40:29.780Z</time>
      </trkpt>
      <trkpt lat="44.71592" lon="0.78037">
        <ele>205.98886108398</ele>
        <time>2019-03-30T09:40:32.689Z</time>
      </trkpt>
      <trkpt lat="44.71592" lon="0.78037">
        <ele>205.9885559082</ele>
        <time>2019-03-30T09:40:35.598Z</time>
      </trkpt>
      <trkpt lat="44.71589" lon="0.78052">
        <ele>205.87240600586</ele>
        <time>2019-03-30T09:40:38.509Z</time>
      </trkpt>
      <trkpt lat="44.71589" lon="0.78054">
        <ele>205.85792541504</ele>
        <time>2019-03-30T09:40:41.420Z</time>
      </trkpt>
      <trkpt lat="44.71589" lon="0.78054">
        <ele>205.8549041748</ele>
        <time>2019-03-30T09:40:44.331Z</time>
      </trkpt>
      <trkpt lat="44.71589" lon="0.78054">
        <ele>205.85520935059</ele>
        <time>2019-03-30T09:40:47.242Z</time>
      </trkpt>
      <trkpt lat="44.71551" lon="0.78223">
        <ele>205.66946411133</ele>
        <time>2019-03-30T09:40:50.173Z</time>
      </trkpt>
      <trkpt lat="44.71509" lon="0.78391">
        <ele>207.32669067383</ele>
        <time>2019-03-30T09:40:53.125Z</time>
      </trkpt>
      <trkpt lat="44.71505" lon="0.78411">
        <ele>207.09666442871</ele>
        <time>2019-03-30T09:40:56.079Z</time>
      </trkpt>
      <trkpt lat="44.71505" lon="0.78413">
        <ele>207.07507324219</ele>
        <time>2019-03-30T09:40:59.033Z</time>
      </trkpt>
      <trkpt lat="44.71505" lon="0.78413">
        <ele>207.07025146484</ele>
        <time>2019-03-30T09:41:01.987Z</time>
      </trkpt>
      <trkpt lat="44.71505" lon="0.78413">
        <ele>207.07025146484</ele>
        <time>2019-03-30T09:41:04.941Z</time>
      </trkpt>
      <trkpt lat="44.71477" lon="0.78555">
        <ele>204.84484863281</ele>
        <time>2019-03-30T09:41:07.912Z</time>
      </trkpt>
      <trkpt lat="44.7145" lon="0.78648">
        <ele>208.29093933105</ele>
        <time>2019-03-30T09:41:10.895Z</time>
      </trkpt>
      <trkpt lat="44.7143" lon="0.78681">
        <ele>208.8826751709</ele>
        <time>2019-03-30T09:41:13.883Z</time>
      </trkpt>
      <trkpt lat="44.71384" lon="0.78724">
        <ele>207.8279876709</ele>
        <time>2019-03-30T09:41:16.879Z</time>
      </trkpt>
      <trkpt lat="44.71361" lon="0.78757">
        <ele>206.84716796875</ele>
        <time>2019-03-30T09:41:19.881Z</time>
      </trkpt>
      <trkpt lat="44.7136" lon="0.78758">
        <ele>206.80549621582</ele>
        <time>2019-03-30T09:41:22.883Z</time>
      </trkpt>
      <trkpt lat="44.71359" lon="0.78759">
        <ele>206.79522705078</ele>
        <time>2019-03-30T09:41:25.885Z</time>
      </trkpt>
      <trkpt lat="44.71359" lon="0.78759">
        <ele>206.7960357666</ele>
        <time>2019-03-30T09:41:28.887Z</time>
      </trkpt>
      <trkpt lat="44.71317" lon="0.78817">
        <ele>205.7847442627</ele>
        <time>2019-03-30T09:41:31.898Z</time>
      </trkpt>
      <trkpt lat="44.71308" lon="0.78833">
        <ele>205.2580871582</ele>
        <time>2019-03-30T09:41:34.912Z</time>
      </trkpt>
      <trkpt lat="44.71307" lon="0.78851">
        <ele>205.23887634277</ele>
        <time>2019-03-30T09:41:37.928Z</time>
      </trkpt>
      <trkpt lat="44.71311" lon="0.78863">
        <ele>205.29026794434</ele>
        <time>2019-03-30T09:41:40.945Z</time>
      </trkpt>
      <trkpt lat="44.71372" lon="0.78926">
        <ele>204.72863769531</ele>
        <time>2019-03-30T09:41:43.974Z</time>
      </trkpt>
      <trkpt lat="44.71402" lon="0.78977">
        <ele>204.47732543945</ele>
        <time>2019-03-30T09:41:47.011Z</time>
      </trkpt>
      <trkpt lat="44.71417" lon="0.7901">
        <ele>204.77299499512</ele>
        <time>2019-03-30T09:41:50.052Z</time>
      </trkpt>
      <trkpt lat="44.71417" lon="0.79012">
        <ele>204.77345275879</ele>
        <time>2019-03-30T09:41:53.094Z</time>
      </trkpt>
      <trkpt lat="44.71418" lon="0.79014">
        <ele>204.77388000488</ele>
        <time>2019-03-30T09:41:56.136Z</time>
      </trkpt>
      <trkpt lat="44.71418" lon="0.79014">
        <ele>204.7740020752</ele>
        <time>2019-03-30T09:41:59.178Z</time>
      </trkpt>
      <trkpt lat="44.71418" lon="0.79014">
        <ele>204.77420043945</ele>
        <time>2019-03-30T09:42:02.220Z</time>
      </trkpt>
      <trkpt lat="44.71433" lon="0.79075">
        <ele>204.7886505127</ele>
        <time>2019-03-30T09:42:05.269Z</time>
      </trkpt>
      <trkpt lat="44.71449" lon="0.79211">
        <ele>206.65135192871</ele>
        <time>2019-03-30T09:42:08.334Z</time>
      </trkpt>
      <trkpt lat="44.7145" lon="0.79239">
        <ele>207.28826904297</ele>
        <time>2019-03-30T09:42:11.402Z</time>
      </trkpt>
      <trkpt lat="44.71455" lon="0.79358">
        <ele>211.54354858398</ele>
        <time>2019-03-30T09:42:14.484Z</time>
      </trkpt>
      <trkpt lat="44.71455" lon="0.7936">
        <ele>211.63343811035</ele>
        <time>2019-03-30T09:42:17.566Z</time>
      </trkpt>
      <trkpt lat="44.71455" lon="0.7936">
        <ele>211.64756774902</ele>
        <time>2019-03-30T09:42:20.648Z</time>
      </trkpt>
      <trkpt lat="44.71455" lon="0.7936">
        <ele>211.64636230469</ele>
        <time>2019-03-30T09:42:23.730Z</time>
      </trkpt>
      <trkpt lat="44.7146" lon="0.79488">
        <ele>217.68183898926</ele>
        <time>2019-03-30T09:42:26.827Z</time>
      </trkpt>
      <trkpt lat="44.71452" lon="0.79526">
        <ele>217.84788513184</ele>
        <time>2019-03-30T09:42:29.928Z</time>
      </trkpt>
      <trkpt lat="44.71452" lon="0.79526">
        <ele>217.84698486328</ele>
        <time>2019-03-30T09:42:33.029Z</time>
      </trkpt>
      <trkpt lat="44.71439" lon="0.79554">
        <ele>216.56372070312</ele>
        <time>2019-03-30T09:42:36.134Z</time>
      </trkpt>
      <trkpt lat="44.71433" lon="0.79587">
        <ele>215.25277709961</ele>
        <time>2019-03-30T09:42:39.243Z</time>
      </trkpt>
      <trkpt lat="44.71442" lon="0.79614">
        <ele>215.42092895508</ele>
        <time>2019-03-30T09:42:42.355Z</time>
      </trkpt>
      <trkpt lat="44.71468" lon="0.79648">
        <ele>215.21044921875</ele>
        <time>2019-03-30T09:42:45.473Z</time>
      </trkpt>
      <trkpt lat="44.71557" lon="0.79762">
        <ele>207.82177734375</ele>
        <time>2019-03-30T09:42:48.610Z</time>
      </trkpt>
      <trkpt lat="44.71428" lon="0.7994">
        <ele>205.68702697754</ele>
        <time>2019-03-30T09:42:51.776Z</time>
      </trkpt>
      <trkpt lat="44.7142" lon="0.79944">
        <ele>205.34631347656</ele>
        <time>2019-03-30T09:42:54.944Z</time>
      </trkpt>
      <trkpt lat="44.71414" lon="0.7997">
        <ele>204.18174743652</ele>
        <time>2019-03-30T09:42:58.115Z</time>
      </trkpt>
      <trkpt lat="44.71424" lon="0.79995">
        <ele>203.73725891113</ele>
        <time>2019-03-30T09:43:01.289Z</time>
      </trkpt>
      <trkpt lat="44.71494" lon="0.80066">
        <ele>202.26873779297</ele>
        <time>2019-03-30T09:43:04.477Z</time>
      </trkpt>
      <trkpt lat="44.71623" lon="0.80144">
        <ele>200.86155700684</ele>
        <time>2019-03-30T09:43:07.687Z</time>
      </trkpt>
      <trkpt lat="44.71548" lon="0.8034">
        <ele>197.8443145752</ele>
        <time>2019-03-30T09:43:10.923Z</time>
      </trkpt>
      <trkpt lat="44.71547" lon="0.80342">
        <ele>197.88436889648</ele>
        <time>2019-03-30T09:43:14.159Z</time>
      </trkpt>
      <trkpt lat="44.71547" lon="0.80342">
        <ele>197.88943481445</ele>
        <time>2019-03-30T09:43:17.395Z</time>
      </trkpt>
      <trkpt lat="44.71547" lon="0.80342">
        <ele>197.88902282715</ele>
        <time>2019-03-30T09:43:20.631Z</time>
      </trkpt>
      <trkpt lat="44.71373" lon="0.80798">
        <ele>198.02734375</ele>
        <time>2019-03-30T09:43:23.926Z</time>
      </trkpt>
      <trkpt lat="44.71355" lon="0.80831">
        <ele>198.66831970215</ele>
        <time>2019-03-30T09:43:27.226Z</time>
      </trkpt>
      <trkpt lat="44.7131" lon="0.80872">
        <ele>199.72903442383</ele>
        <time>2019-03-30T09:43:30.535Z</time>
      </trkpt>
      <trkpt lat="44.71124" lon="0.8097">
        <ele>198.89888000488</ele>
        <time>2019-03-30T09:43:33.875Z</time>
      </trkpt>
      <trkpt lat="44.71124" lon="0.8097">
        <ele>198.89907836914</ele>
        <time>2019-03-30T09:43:37.215Z</time>
      </trkpt>
      <trkpt lat="44.71099" lon="0.80997">
        <ele>199.66094970703</ele>
        <time>2019-03-30T09:43:40.560Z</time>
      </trkpt>
      <trkpt lat="44.70917" lon="0.81244">
        <ele>200.69020080566</ele>
        <time>2019-03-30T09:43:43.946Z</time>
      </trkpt>
      <trkpt lat="44.70902" lon="0.81272">
        <ele>201.63972473145</ele>
        <time>2019-03-30T09:43:47.336Z</time>
      </trkpt>
      <trkpt lat="44.70826" lon="0.81558">
        <ele>203.5919342041</ele>
        <time>2019-03-30T09:43:50.761Z</time>
      </trkpt>
      <trkpt lat="44.70827" lon="0.81621">
        <ele>205.39797973633</ele>
        <time>2019-03-30T09:43:54.193Z</time>
      </trkpt>
      <trkpt lat="44.70895" lon="0.81861">
        <ele>214.00015258789</ele>
        <time>2019-03-30T09:43:57.654Z</time>
      </trkpt>
      <trkpt lat="44.70903" lon="0.8193">
        <ele>213.50486755371</ele>
        <time>2019-03-30T09:44:01.123Z</time>
      </trkpt>
      <trkpt lat="44.70883" lon="0.82228">
        <ele>210.44152832031</ele>
        <time>2019-03-30T09:44:04.626Z</time>
      </trkpt>
      <trkpt lat="44.70729" lon="0.82775">
        <ele>211.09812927246</ele>
        <time>2019-03-30T09:44:08.197Z</time>
      </trkpt>
      <trkpt lat="44.70729" lon="0.82775">
        <ele>211.09841918945</ele>
        <time>2019-03-30T09:44:11.768Z</time>
      </trkpt>
      <trkpt lat="44.70662" lon="0.83005">
        <ele>216.02342224121</ele>
        <time>2019-03-30T09:44:15.367Z</time>
      </trkpt>
      <trkpt lat="44.7063" lon="0.831">
        <ele>214.61027526855</ele>
        <time>2019-03-30T09:44:18.978Z</time>
      </trkpt>
      <trkpt lat="44.70588" lon="0.83175">
        <ele>212.40838623047</ele>
        <time>2019-03-30T09:44:22.600Z</time>
      </trkpt>
      <trkpt lat="44.7046" lon="0.83374">
        <ele>208.25108337402</ele>
        <time>2019-03-30T09:44:26.252Z</time>
      </trkpt>
      <trkpt lat="44.7046" lon="0.83374">
        <ele>208.2509765625</ele>
        <time>2019-03-30T09:44:29.904Z</time>
      </trkpt>
      <trkpt lat="44.70353" lon="0.83545">
        <ele>201.85304260254</ele>
        <time>2019-03-30T09:44:33.582Z</time>
      </trkpt>
      <trkpt lat="44.70296" lon="0.83675">
        <ele>201.67337036133</ele>
        <time>2019-03-30T09:44:37.278Z</time>
      </trkpt>
      <trkpt lat="44.70295" lon="0.83676">
        <ele>201.69879150391</ele>
        <time>2019-03-30T09:44:40.974Z</time>
      </trkpt>
      <trkpt lat="44.70295" lon="0.83676">
        <ele>201.7046661377</ele>
        <time>2019-03-30T09:44:44.670Z</time>
      </trkpt>
      <trkpt lat="44.70295" lon="0.83676">
        <ele>201.7043762207</ele>
        <time>2019-03-30T09:44:48.366Z</time>
      </trkpt>
      <trkpt lat="44.70231" lon="0.83823">
        <ele>198.97525024414</ele>
        <time>2019-03-30T09:44:52.082Z</time>
      </trkpt>
      <trkpt lat="44.70231" lon="0.83823">
        <ele>198.97534179688</ele>
        <time>2019-03-30T09:44:55.798Z</time>
      </trkpt>
      <trkpt lat="44.70163" lon="0.83989">
        <ele>199.48970031738</ele>
        <time>2019-03-30T09:44:59.535Z</time>
      </trkpt>
      <trkpt lat="44.70157" lon="0.84021">
        <ele>199.13705444336</ele>
        <time>2019-03-30T09:45:03.276Z</time>
      </trkpt>
      <trkpt lat="44.70166" lon="0.84154">
        <ele>196.59484863281</ele>
        <time>2019-03-30T09:45:07.032Z</time>
      </trkpt>
      <trkpt lat="44.70159" lon="0.84203">
        <ele>197.77114868164</ele>
        <time>2019-03-30T09:45:10.794Z</time>
      </trkpt>
      <trkpt lat="44.70115" lon="0.84397">
        <ele>199.88566589355</ele>
        <time>2019-03-30T09:45:14.579Z</time>
      </trkpt>
      <trkpt lat="44.70084" lon="0.84465">
        <ele>200.33192443848</ele>
        <time>2019-03-30T09:45:18.374Z</time>
      </trkpt>
      <trkpt lat="44.69932" lon="0.84717">
        <ele>198.49237060547</ele>
        <time>2019-03-30T09:45:22.206Z</time>
      </trkpt>
      <trkpt lat="44.69908" lon="0.84792">
        <ele>194.31214904785</ele>
        <time>2019-03-30T09:45:26.048Z</time>
      </trkpt>
      <trkpt lat="44.69856" lon="0.85049">
        <ele>202.47479248047</ele>
        <time>2019-03-30T09:45:29.920Z</time>
      </trkpt>
      <trkpt lat="44.69801" lon="0.85188">
        <ele>200.82823181152</ele>
        <time>2019-03-30T09:45:33.810Z</time>
      </trkpt>
      <trkpt lat="44.69727" lon="0.85303">
        <ele>200.16674804688</ele>
        <time>2019-03-30T09:45:37.718Z</time>
      </trkpt>
      <trkpt lat="44.69726" lon="0.85303">
        <ele>200.16705322266</ele>
        <time>2019-03-30T09:45:41.626Z</time>
      </trkpt>
      <trkpt lat="44.6968" lon="0.85394">
        <ele>201.11010742188</ele>
        <time>2019-03-30T09:45:45.547Z</time>
      </trkpt>
      <trkpt lat="44.69653" lon="0.85493">
        <ele>199.57067871094</ele>
        <time>2019-03-30T09:45:49.480Z</time>
      </trkpt>
      <trkpt lat="44.69622" lon="0.86193">
        <ele>198.32350158691</ele>
        <time>2019-03-30T09:45:53.493Z</time>
      </trkpt>
      <trkpt lat="44.69622" lon="0.862">
        <ele>198.24626159668</ele>
        <time>2019-03-30T09:45:57.507Z</time>
      </trkpt>
      <trkpt lat="44.69621" lon="0.86211">
        <ele>198.13041687012</ele>
        <time>2019-03-30T09:46:01.522Z</time>
      </trkpt>
      <trkpt lat="44.69612" lon="0.86296">
        <ele>198.09970092773</ele>
        <time>2019-03-30T09:46:05.547Z</time>
      </trkpt>
      <trkpt lat="44.69577" lon="0.86374">
        <ele>196.89161682129</ele>
        <time>2019-03-30T09:46:09.582Z</time>
      </trkpt>
      <trkpt lat="44.69574" lon="0.86377">
        <ele>196.84013366699</ele>
        <time>2019-03-30T09:46:13.618Z</time>
      </trkpt>
      <trkpt lat="44.69495" lon="0.86478">
        <ele>196.3077545166</ele>
        <time>2019-03-30T09:46:17.671Z</time>
      </trkpt>
      <trkpt lat="44.69459" lon="0.86552">
        <ele>195.85530090332</ele>
        <time>2019-03-30T09:46:21.734Z</time>
      </trkpt>
      <trkpt lat="44.69401" lon="0.86863">
        <ele>199.05868530273</ele>
        <time>2019-03-30T09:46:25.834Z</time>
      </trkpt>
      <trkpt lat="44.69347" lon="0.87074">
        <ele>201.09321594238</ele>
        <time>2019-03-30T09:46:29.960Z</time>
      </trkpt>
      <trkpt lat="44.69339" lon="0.871">
        <ele>200.0376739502</ele>
        <time>2019-03-30T09:46:34.089Z</time>
      </trkpt>
      <trkpt lat="44.69242" lon="0.87447">
        <ele>198.77055358887</ele>
        <time>2019-03-30T09:46:38.260Z</time>
      </trkpt>
      <trkpt lat="44.69232" lon="0.87474">
        <ele>198.34355163574</ele>
        <time>2019-03-30T09:46:42.435Z</time>
      </trkpt>
      <trkpt lat="44.69085" lon="0.87871">
        <ele>200.80001831055</ele>
        <time>2019-03-30T09:46:46.661Z</time>
      </trkpt>
      <trkpt lat="44.69051" lon="0.8803">
        <ele>199.17454528809</ele>
        <time>2019-03-30T09:46:50.906Z</time>
      </trkpt>
      <trkpt lat="44.69012" lon="0.88239">
        <ele>201.09381103516</ele>
        <time>2019-03-30T09:46:55.176Z</time>
      </trkpt>
      <trkpt lat="44.68926" lon="0.88426">
        <ele>200.7536315918</ele>
        <time>2019-03-30T09:46:59.471Z</time>
      </trkpt>
      <trkpt lat="44.68926" lon="0.88426">
        <ele>200.75373840332</ele>
        <time>2019-03-30T09:47:03.766Z</time>
      </trkpt>
      <trkpt lat="44.68918" lon="0.88443">
        <ele>201.06257629395</ele>
        <time>2019-03-30T09:47:08.063Z</time>
      </trkpt>
      <trkpt lat="44.68804" lon="0.8868">
        <ele>202.27186584473</ele>
        <time>2019-03-30T09:47:12.393Z</time>
      </trkpt>
      <trkpt lat="44.68771" lon="0.88748">
        <ele>202.81481933594</ele>
        <time>2019-03-30T09:47:16.732Z</time>
      </trkpt>
      <trkpt lat="44.68658" lon="0.89003">
        <ele>202.01643371582</ele>
        <time>2019-03-30T09:47:21.106Z</time>
      </trkpt>
      <trkpt lat="44.68633" lon="0.89062">
        <ele>200.46284484863</ele>
        <time>2019-03-30T09:47:25.487Z</time>
      </trkpt>
      <trkpt lat="44.68617" lon="0.89099">
        <ele>201.32376098633</ele>
        <time>2019-03-30T09:47:29.873Z</time>
      </trkpt>
      <trkpt lat="44.68594" lon="0.89156">
        <ele>202.55709838867</ele>
        <time>2019-03-30T09:47:34.267Z</time>
      </trkpt>
      <trkpt lat="44.68554" lon="0.89247">
        <ele>203.92616271973</ele>
        <time>2019-03-30T09:47:38.673Z</time>
      </trkpt>
      <trkpt lat="44.68535" lon="0.89274">
        <ele>203.5633392334</ele>
        <time>2019-03-30T09:47:43.083Z</time>
      </trkpt>
      <trkpt lat="44.68498" lon="0.89279">
        <ele>202.74613952637</ele>
        <time>2019-03-30T09:47:47.499Z</time>
      </trkpt>
      <trkpt lat="44.68498" lon="0.89279">
        <ele>202.74594116211</ele>
        <time>2019-03-30T09:47:51.915Z</time>
      </trkpt>
      <trkpt lat="44.68429" lon="0.89288">
        <ele>201.77798461914</ele>
        <time>2019-03-30T09:47:56.342Z</time>
      </trkpt>
      <trkpt lat="44.68215" lon="0.89315">
        <ele>200.20860290527</ele>
        <time>2019-03-30T09:48:00.804Z</time>
      </trkpt>
      <trkpt lat="44.68123" lon="0.89327">
        <ele>198.23913574219</ele>
        <time>2019-03-30T09:48:05.281Z</time>
      </trkpt>
      <trkpt lat="44.68054" lon="0.89336">
        <ele>196.07397460938</ele>
        <time>2019-03-30T09:48:09.769Z</time>
      </trkpt>
      <trkpt lat="44.68054" lon="0.89336">
        <ele>196.07386779785</ele>
        <time>2019-03-30T09:48:14.257Z</time>
      </trkpt>
      <trkpt lat="44.68035" lon="0.89339">
        <ele>196.0931854248</ele>
        <time>2019-03-30T09:48:18.748Z</time>
      </trkpt>
      <trkpt lat="44.67983" lon="0.89347">
        <ele>195.95690917969</ele>
        <time>2019-03-30T09:48:23.247Z</time>
      </trkpt>
      <trkpt lat="44.67988" lon="0.89409">
        <ele>199.48606872559</ele>
        <time>2019-03-30T09:48:27.753Z</time>
      </trkpt>
      <trkpt lat="44.67965" lon="0.89411">
        <ele>198.59004211426</ele>
        <time>2019-03-30T09:48:32.263Z</time>
      </trkpt>
      <trkpt lat="44.67899" lon="0.89419">
        <ele>194.13572692871</ele>
        <time>2019-03-30T09:48:36.783Z</time>
      </trkpt>
      <trkpt lat="44.67866" lon="0.89424">
        <ele>190.08987426758</ele>
        <time>2019-03-30T09:48:41.309Z</time>
      </trkpt>
      <trkpt lat="44.67861" lon="0.89424">
        <ele>189.14375305176</ele>
        <time>2019-03-30T09:48:45.836Z</time>
      </trkpt>
      <trkpt lat="44.67853" lon="0.89426">
        <ele>187.43814086914</ele>
        <time>2019-03-30T09:48:50.364Z</time>
      </trkpt>
      <trkpt lat="44.67814" lon="0.89423">
        <ele>179.78517150879</ele>
        <time>2019-03-30T09:48:54.898Z</time>
      </trkpt>
      <trkpt lat="44.67814" lon="0.89423">
        <ele>179.78305053711</ele>
        <time>2019-03-30T09:48:59.432Z</time>
      </trkpt>
      <trkpt lat="44.67763" lon="0.89388">
        <ele>171.79299926758</ele>
        <time>2019-03-30T09:49:03.975Z</time>
      </trkpt>
      <trkpt lat="44.67685" lon="0.89308">
        <ele>161.65744018555</ele>
        <time>2019-03-30T09:49:08.534Z</time>
      </trkpt>
      <trkpt lat="44.67685" lon="0.89308">
        <ele>161.65592956543</ele>
        <time>2019-03-30T09:49:13.093Z</time>
      </trkpt>
      <trkpt lat="44.67638" lon="0.89258">
        <ele>154.49891662598</ele>
        <time>2019-03-30T09:49:17.661Z</time>
      </trkpt>
      <trkpt lat="44.6762" lon="0.89247">
        <ele>151.57194519043</ele>
        <time>2019-03-30T09:49:22.232Z</time>
      </trkpt>
      <trkpt lat="44.6762" lon="0.89247">
        <ele>151.57043457031</ele>
        <time>2019-03-30T09:49:26.803Z</time>
      </trkpt>
      <trkpt lat="44.67617" lon="0.89238">
        <ele>151.46148681641</ele>
        <time>2019-03-30T09:49:31.375Z</time>
      </trkpt>
      <trkpt lat="44.6753" lon="0.89045">
        <ele>144.06535339355</ele>
        <time>2019-03-30T09:49:35.973Z</time>
      </trkpt>
      <trkpt lat="44.67434" lon="0.88884">
        <ele>143.16229248047</ele>
        <time>2019-03-30T09:49:40.595Z</time>
      </trkpt>
      <trkpt lat="44.67387" lon="0.88821">
        <ele>143.15446472168</ele>
        <time>2019-03-30T09:49:45.228Z</time>
      </trkpt>
      <trkpt lat="44.67319" lon="0.88768">
        <ele>143.93031311035</ele>
        <time>2019-03-30T09:49:49.873Z</time>
      </trkpt>
      <trkpt lat="44.67238" lon="0.88719">
        <ele>142.85824584961</ele>
        <time>2019-03-30T09:49:54.532Z</time>
      </trkpt>
      <trkpt lat="44.67201" lon="0.88685">
        <ele>142.3162689209</ele>
        <time>2019-03-30T09:49:59.199Z</time>
      </trkpt>
      <trkpt lat="44.67201" lon="0.88685">
        <ele>142.31597900391</ele>
        <time>2019-03-30T09:50:03.866Z</time>
      </trkpt>
      <trkpt lat="44.67118" lon="0.88601">
        <ele>141.88777160645</ele>
        <time>2019-03-30T09:50:08.549Z</time>
      </trkpt>
      <trkpt lat="44.67078" lon="0.88547">
        <ele>141.37620544434</ele>
        <time>2019-03-30T09:50:13.241Z</time>
      </trkpt>
      <trkpt lat="44.67046" lon="0.88485">
        <ele>139.50355529785</ele>
        <time>2019-03-30T09:50:17.942Z</time>
      </trkpt>
      <trkpt lat="44.67046" lon="0.88485">
        <ele>139.50326538086</ele>
        <time>2019-03-30T09:50:22.643Z</time>
      </trkpt>
      <trkpt lat="44.67032" lon="0.88457">
        <ele>139.26106262207</ele>
        <time>2019-03-30T09:50:27.347Z</time>
      </trkpt>
      <trkpt lat="44.67004" lon="0.88324">
        <ele>140.62547302246</ele>
        <time>2019-03-30T09:50:32.067Z</time>
      </trkpt>
      <trkpt lat="44.66929" lon="0.88123">
        <ele>138.42543029785</ele>
        <time>2019-03-30T09:50:36.813Z</time>
      </trkpt>
      <trkpt lat="44.6686" lon="0.88015">
        <ele>138.01533508301</ele>
        <time>2019-03-30T09:50:41.576Z</time>
      </trkpt>
      <trkpt lat="44.66719" lon="0.87836">
        <ele>136.39730834961</ele>
        <time>2019-03-30T09:50:46.369Z</time>
      </trkpt>
      <trkpt lat="44.66665" lon="0.8779">
        <ele>136.08441162109</ele>
        <time>2019-03-30T09:50:51.172Z</time>
      </trkpt>
      <trkpt lat="44.66497" lon="0.87646">
        <ele>134.95065307617</ele>
        <time>2019-03-30T09:50:56.007Z</time>
      </trkpt>
      <trkpt lat="44.66496" lon="0.87645">
        <ele>134.90322875977</ele>
        <time>2019-03-30T09:51:00.842Z</time>
      </trkpt>
      <trkpt lat="44.66495" lon="0.87645">
        <ele>134.88442993164</ele>
        <time>2019-03-30T09:51:05.677Z</time>
      </trkpt>
      <trkpt lat="44.66495" lon="0.87645">
        <ele>134.8853302002</ele>
        <time>2019-03-30T09:51:10.512Z</time>
      </trkpt>
      <trkpt lat="44.66483" lon="0.87634">
        <ele>134.63963317871</ele>
        <time>2019-03-30T09:51:15.349Z</time>
      </trkpt>
      <trkpt lat="44.66333" lon="0.87455">
        <ele>135.55355834961</ele>
        <time>2019-03-30T09:51:20.218Z</time>
      </trkpt>
      <trkpt lat="44.66285" lon="0.87407">
        <ele>135.53616333008</ele>
        <time>2019-03-30T09:51:25.096Z</time>
      </trkpt>
      <trkpt lat="44.66262" lon="0.87365">
        <ele>134.54565429688</ele>
        <time>2019-03-30T09:51:29.980Z</time>
      </trkpt>
      <trkpt lat="44.66248" lon="0.8731">
        <ele>132.71162414551</ele>
        <time>2019-03-30T09:51:34.871Z</time>
      </trkpt>
      <trkpt lat="44.662" lon="0.87158">
        <ele>132.97232055664</ele>
        <time>2019-03-30T09:51:39.781Z</time>
      </trkpt>
      <trkpt lat="44.66158" lon="0.87065">
        <ele>132.26600646973</ele>
        <time>2019-03-30T09:51:44.704Z</time>
      </trkpt>
      <trkpt lat="44.66121" lon="0.86954">
        <ele>132.03970336914</ele>
        <time>2019-03-30T09:51:49.641Z</time>
      </trkpt>
      <trkpt lat="44.66121" lon="0.86954">
        <ele>132.03950500488</ele>
        <time>2019-03-30T09:51:54.578Z</time>
      </trkpt>
      <trkpt lat="44.66096" lon="0.86886">
        <ele>131.71725463867</ele>
        <time>2019-03-30T09:51:59.523Z</time>
      </trkpt>
      <trkpt lat="44.66063" lon="0.86831">
        <ele>131.27546691895</ele>
        <time>2019-03-30T09:52:04.476Z</time>
      </trkpt>
      <trkpt lat="44.65951" lon="0.86697">
        <ele>133.55712890625</ele>
        <time>2019-03-30T09:52:09.453Z</time>
      </trkpt>
      <trkpt lat="44.65746" lon="0.86447">
        <ele>139.64682006836</ele>
        <time>2019-03-30T09:52:14.474Z</time>
      </trkpt>
      <trkpt lat="44.6569" lon="0.86343">
        <ele>140.28114318848</ele>
        <time>2019-03-30T09:52:19.509Z</time>
      </trkpt>
      <trkpt lat="44.6569" lon="0.86343">
        <ele>140.28335571289</ele>
        <time>2019-03-30T09:52:24.544Z</time>
      </trkpt>
      <trkpt lat="44.65602" lon="0.86155">
        <ele>130.44450378418</ele>
        <time>2019-03-30T09:52:29.605Z</time>
      </trkpt>
      <trkpt lat="44.65602" lon="0.86155">
        <ele>130.44470214844</ele>
        <time>2019-03-30T09:52:34.666Z</time>
      </trkpt>
      <trkpt lat="44.65497" lon="0.8594">
        <ele>127.29553222656</ele>
        <time>2019-03-30T09:52:39.757Z</time>
      </trkpt>
      <trkpt lat="44.65386" lon="0.86047">
        <ele>144.09063720703</ele>
        <time>2019-03-30T09:52:44.869Z</time>
      </trkpt>
      <trkpt lat="44.65284" lon="0.86085">
        <ele>152.22920227051</ele>
        <time>2019-03-30T09:52:49.998Z</time>
      </trkpt>
      <trkpt lat="44.65176" lon="0.86081">
        <ele>164.25926208496</ele>
        <time>2019-03-30T09:52:55.145Z</time>
      </trkpt>
      <trkpt lat="44.65176" lon="0.86081">
        <ele>164.2639465332</ele>
        <time>2019-03-30T09:53:00.292Z</time>
      </trkpt>
      <trkpt lat="44.65175" lon="0.86081">
        <ele>164.32388305664</ele>
        <time>2019-03-30T09:53:05.439Z</time>
      </trkpt>
      <trkpt lat="44.65174" lon="0.86081">
        <ele>164.35592651367</ele>
        <time>2019-03-30T09:53:10.586Z</time>
      </trkpt>
      <trkpt lat="44.65174" lon="0.86081">
        <ele>164.35633850098</ele>
        <time>2019-03-30T09:53:15.733Z</time>
      </trkpt>
      <trkpt lat="44.65157" lon="0.86081">
        <ele>165.18460083008</ele>
        <time>2019-03-30T09:53:20.883Z</time>
      </trkpt>
      <trkpt lat="44.65095" lon="0.86125">
        <ele>169.11405944824</ele>
        <time>2019-03-30T09:53:26.044Z</time>
      </trkpt>
      <trkpt lat="44.65066" lon="0.86127">
        <ele>171.92025756836</ele>
        <time>2019-03-30T09:53:31.209Z</time>
      </trkpt>
      <trkpt lat="44.65034" lon="0.86148">
        <ele>175.58644104004</ele>
        <time>2019-03-30T09:53:36.380Z</time>
      </trkpt>
      <trkpt lat="44.64934" lon="0.86217">
        <ele>182.36494445801</ele>
        <time>2019-03-30T09:53:41.569Z</time>
      </trkpt>
      <trkpt lat="44.6488" lon="0.86233">
        <ele>184.21624755859</ele>
        <time>2019-03-30T09:53:46.767Z</time>
      </trkpt>
      <trkpt lat="44.64821" lon="0.8628">
        <ele>187.47972106934</ele>
        <time>2019-03-30T09:53:51.976Z</time>
      </trkpt>
      <trkpt lat="44.64791" lon="0.86281">
        <ele>188.16839599609</ele>
        <time>2019-03-30T09:53:57.189Z</time>
      </trkpt>
      <trkpt lat="44.64791" lon="0.86281">
        <ele>188.16819763184</ele>
        <time>2019-03-30T09:54:02.402Z</time>
      </trkpt>
      <trkpt lat="44.64721" lon="0.86269">
        <ele>189.21748352051</ele>
        <time>2019-03-30T09:54:07.627Z</time>
      </trkpt>
      <trkpt lat="44.64696" lon="0.86272">
        <ele>189.33172607422</ele>
        <time>2019-03-30T09:54:12.856Z</time>
      </trkpt>
      <trkpt lat="44.64667" lon="0.86275">
        <ele>189</ele>
        <time>2019-03-30T09:54:18.089Z</time>
      </trkpt>
      <trkpt lat="44.64591" lon="0.86287">
        <ele>189.34280395508</ele>
        <time>2019-03-30T09:54:23.335Z</time>
      </trkpt>
      <trkpt lat="44.64565" lon="0.863">
        <ele>189.65174865723</ele>
        <time>2019-03-30T09:54:28.585Z</time>
      </trkpt>
      <trkpt lat="44.64514" lon="0.86338">
        <ele>188.72254943848</ele>
        <time>2019-03-30T09:54:33.844Z</time>
      </trkpt>
      <trkpt lat="44.64348" lon="0.86437">
        <ele>189.43070983887</ele>
        <time>2019-03-30T09:54:39.132Z</time>
      </trkpt>
      <trkpt lat="44.64254" lon="0.86521">
        <ele>188.92974853516</ele>
        <time>2019-03-30T09:54:44.438Z</time>
      </trkpt>
      <trkpt lat="44.64153" lon="0.86608">
        <ele>190.44320678711</ele>
        <time>2019-03-30T09:54:49.763Z</time>
      </trkpt>
      <trkpt lat="44.64027" lon="0.86658">
        <ele>191.88461303711</ele>
        <time>2019-03-30T09:54:55.109Z</time>
      </trkpt>
      <trkpt lat="44.64019" lon="0.86661">
        <ele>192.01333618164</ele>
        <time>2019-03-30T09:55:00.456Z</time>
      </trkpt>
      <trkpt lat="44.63982" lon="0.86679">
        <ele>192.76856994629</ele>
        <time>2019-03-30T09:55:05.810Z</time>
      </trkpt>
      <trkpt lat="44.63912" lon="0.86749">
        <ele>193.95735168457</ele>
        <time>2019-03-30T09:55:11.177Z</time>
      </trkpt>
      <trkpt lat="44.63881" lon="0.8677">
        <ele>193.55883789062</ele>
        <time>2019-03-30T09:55:16.550Z</time>
      </trkpt>
      <trkpt lat="44.63696" lon="0.86862">
        <ele>197.66691589355</ele>
        <time>2019-03-30T09:55:21.954Z</time>
      </trkpt>
      <trkpt lat="44.63696" lon="0.86862">
        <ele>197.66691589355</ele>
        <time>2019-03-30T09:55:27.358Z</time>
      </trkpt>
      <trkpt lat="44.63642" lon="0.869">
        <ele>198.13032531738</ele>
        <time>2019-03-30T09:55:32.772Z</time>
      </trkpt>
      <trkpt lat="44.63623" lon="0.86936">
        <ele>199.08015441895</ele>
        <time>2019-03-30T09:55:38.191Z</time>
      </trkpt>
      <trkpt lat="44.63622" lon="0.86938">
        <ele>199.12608337402</ele>
        <time>2019-03-30T09:55:43.610Z</time>
      </trkpt>
      <trkpt lat="44.63622" lon="0.86938">
        <ele>199.14456176758</ele>
        <time>2019-03-30T09:55:49.029Z</time>
      </trkpt>
      <trkpt lat="44.63622" lon="0.86939">
        <ele>199.14476013184</ele>
        <time>2019-03-30T09:55:54.448Z</time>
      </trkpt>
      <trkpt lat="44.63538" lon="0.87092">
        <ele>198.27418518066</ele>
        <time>2019-03-30T09:55:59.889Z</time>
      </trkpt>
      <trkpt lat="44.63491" lon="0.87163">
        <ele>198.69216918945</ele>
        <time>2019-03-30T09:56:05.341Z</time>
      </trkpt>
      <trkpt lat="44.63477" lon="0.87191">
        <ele>200.44459533691</ele>
        <time>2019-03-30T09:56:10.797Z</time>
      </trkpt>
      <trkpt lat="44.63447" lon="0.87302">
        <ele>210.19332885742</ele>
        <time>2019-03-30T09:56:16.267Z</time>
      </trkpt>
      <trkpt lat="44.63424" lon="0.87346">
        <ele>212.96867370605</ele>
        <time>2019-03-30T09:56:21.743Z</time>
      </trkpt>
      <trkpt lat="44.63398" lon="0.87356">
        <ele>213.8664855957</ele>
        <time>2019-03-30T09:56:27.223Z</time>
      </trkpt>
      <trkpt lat="44.63345" lon="0.87358">
        <ele>216.72737121582</ele>
        <time>2019-03-30T09:56:32.712Z</time>
      </trkpt>
      <trkpt lat="44.63339" lon="0.87357">
        <ele>217.44178771973</ele>
        <time>2019-03-30T09:56:38.202Z</time>
      </trkpt>
      <trkpt lat="44.63326" lon="0.87346">
        <ele>219.25772094727</ele>
        <time>2019-03-30T09:56:43.694Z</time>
      </trkpt>
      <trkpt lat="44.63303" lon="0.873">
        <ele>223.65243530273</ele>
        <time>2019-03-30T09:56:49.193Z</time>
      </trkpt>
      <trkpt lat="44.63283" lon="0.872">
        <ele>228.05076599121</ele>
        <time>2019-03-30T09:56:54.704Z</time>
      </trkpt>
      <trkpt lat="44.63255" lon="0.87148">
        <ele>222.5220489502</ele>
        <time>2019-03-30T09:57:00.222Z</time>
      </trkpt>
      <trkpt lat="44.63194" lon="0.87156">
        <ele>223.47100830078</ele>
        <time>2019-03-30T09:57:05.750Z</time>
      </trkpt>
      <trkpt lat="44.63146" lon="0.87175">
        <ele>217.25927734375</ele>
        <time>2019-03-30T09:57:11.286Z</time>
      </trkpt>
      <trkpt lat="44.63136" lon="0.87176">
        <ele>215.12074279785</ele>
        <time>2019-03-30T09:57:16.824Z</time>
      </trkpt>
      <trkpt lat="44.63136" lon="0.87176">
        <ele>215.12245178223</ele>
        <time>2019-03-30T09:57:22.362Z</time>
      </trkpt>
      <trkpt lat="44.63108" lon="0.87214">
        <ele>208.59883117676</ele>
        <time>2019-03-30T09:57:27.906Z</time>
      </trkpt>
      <trkpt lat="44.63093" lon="0.87262">
        <ele>203.43803405762</ele>
        <time>2019-03-30T09:57:33.456Z</time>
      </trkpt>
      <trkpt lat="44.63072" lon="0.87312">
        <ele>200.91398620605</ele>
        <time>2019-03-30T09:57:39.012Z</time>
      </trkpt>
      <trkpt lat="44.63052" lon="0.8734">
        <ele>198.56864929199</ele>
        <time>2019-03-30T09:57:44.573Z</time>
      </trkpt>
      <trkpt lat="44.63052" lon="0.87359">
        <ele>197.86709594727</ele>
        <time>2019-03-30T09:57:50.136Z</time>
      </trkpt>
      <trkpt lat="44.63054" lon="0.87426">
        <ele>196.2336730957</ele>
        <time>2019-03-30T09:57:55.707Z</time>
      </trkpt>
      <trkpt lat="44.63045" lon="0.87496">
        <ele>197.46170043945</ele>
        <time>2019-03-30T09:58:01.286Z</time>
      </trkpt>
      <trkpt lat="44.6289" lon="0.87547">
        <ele>198.85966491699</ele>
        <time>2019-03-30T09:58:06.890Z</time>
      </trkpt>
      <trkpt lat="44.62848" lon="0.87546">
        <ele>198.00302124023</ele>
        <time>2019-03-30T09:58:12.501Z</time>
      </trkpt>
      <trkpt lat="44.62846" lon="0.87549">
        <ele>197.79655456543</ele>
        <time>2019-03-30T09:58:18.112Z</time>
      </trkpt>
      <trkpt lat="44.62849" lon="0.87559">
        <ele>197.65771484375</ele>
        <time>2019-03-30T09:58:23.725Z</time>
      </trkpt>
      <trkpt lat="44.62863" lon="0.87565">
        <ele>198.23698425293</ele>
        <time>2019-03-30T09:58:29.340Z</time>
      </trkpt>
      <trkpt lat="44.62964" lon="0.87658">
        <ele>200.63700866699</ele>
        <time>2019-03-30T09:58:34.974Z</time>
      </trkpt>
      <trkpt lat="44.62975" lon="0.87688">
        <ele>201.08753967285</ele>
        <time>2019-03-30T09:58:40.612Z</time>
      </trkpt>
      <trkpt lat="44.62977" lon="0.87728">
        <ele>200.84353637695</ele>
        <time>2019-03-30T09:58:46.255Z</time>
      </trkpt>
      <trkpt lat="44.62957" lon="0.87822">
        <ele>200.72093200684</ele>
        <time>2019-03-30T09:58:51.909Z</time>
      </trkpt>
      <trkpt lat="44.62949" lon="0.87855">
        <ele>201.43312072754</ele>
        <time>2019-03-30T09:58:57.567Z</time>
      </trkpt>
      <trkpt lat="44.62942" lon="0.87991">
        <ele>204.39331054688</ele>
        <time>2019-03-30T09:59:03.241Z</time>
      </trkpt>
      <trkpt lat="44.62912" lon="0.88075">
        <ele>203.10969543457</ele>
        <time>2019-03-30T09:59:08.925Z</time>
      </trkpt>
      <trkpt lat="44.62911" lon="0.88076">
        <ele>203.0472869873</ele>
        <time>2019-03-30T09:59:14.610Z</time>
      </trkpt>
      <trkpt lat="44.62911" lon="0.88077">
        <ele>203.0255279541</ele>
        <time>2019-03-30T09:59:20.295Z</time>
      </trkpt>
      <trkpt lat="44.62911" lon="0.88077">
        <ele>203.02502441406</ele>
        <time>2019-03-30T09:59:25.980Z</time>
      </trkpt>
      <trkpt lat="44.62903" lon="0.88098">
        <ele>202.58959960938</ele>
        <time>2019-03-30T09:59:31.667Z</time>
      </trkpt>
      <trkpt lat="44.62903" lon="0.88098">
        <ele>202.58949279785</ele>
        <time>2019-03-30T09:59:37.354Z</time>
      </trkpt>
      <trkpt lat="44.62942" lon="0.8815">
        <ele>202.49406433105</ele>
        <time>2019-03-30T09:59:43.050Z</time>
      </trkpt>
      <trkpt lat="44.62952" lon="0.88208">
        <ele>198.8962097168</ele>
        <time>2019-03-30T09:59:48.753Z</time>
      </trkpt>
      <trkpt lat="44.62976" lon="0.88283">
        <ele>194.26229858398</ele>
        <time>2019-03-30T09:59:54.465Z</time>
      </trkpt>
      <trkpt lat="44.62974" lon="0.88306">
        <ele>193.22605895996</ele>
        <time>2019-03-30T10:00:00.180Z</time>
      </trkpt>
      <trkpt lat="44.62949" lon="0.88379">
        <ele>193.8493347168</ele>
        <time>2019-03-30T10:00:05.904Z</time>
      </trkpt>
      <trkpt lat="44.62935" lon="0.88398">
        <ele>192.33219909668</ele>
        <time>2019-03-30T10:00:11.631Z</time>
      </trkpt>
      <trkpt lat="44.62919" lon="0.88403">
        <ele>190.89691162109</ele>
        <time>2019-03-30T10:00:17.361Z</time>
      </trkpt>
      <trkpt lat="44.62837" lon="0.88377">
        <ele>185.83947753906</ele>
        <time>2019-03-30T10:00:23.104Z</time>
      </trkpt>
      <trkpt lat="44.62751" lon="0.88393">
        <ele>180.92236328125</ele>
        <time>2019-03-30T10:00:28.861Z</time>
      </trkpt>
      <trkpt lat="44.62668" lon="0.88496">
        <ele>175.04092407227</ele>
        <time>2019-03-30T10:00:34.636Z</time>
      </trkpt>
      <trkpt lat="44.62635" lon="0.88638">
        <ele>187.01596069336</ele>
        <time>2019-03-30T10:00:40.428Z</time>
      </trkpt>
      <trkpt lat="44.62635" lon="0.88638">
        <ele>187.01556396484</ele>
        <time>2019-03-30T10:00:46.220Z</time>
      </trkpt>
      <trkpt lat="44.62637" lon="0.88683">
        <ele>189.1079864502</ele>
        <time>2019-03-30T10:00:52.017Z</time>
      </trkpt>
      <trkpt lat="44.62656" lon="0.88778">
        <ele>192.99069213867</ele>
        <time>2019-03-30T10:00:57.825Z</time>
      </trkpt>
      <trkpt lat="44.62669" lon="0.88809">
        <ele>194.0959777832</ele>
        <time>2019-03-30T10:01:03.637Z</time>
      </trkpt>
      <trkpt lat="44.62662" lon="0.88878">
        <ele>197.41706848145</ele>
        <time>2019-03-30T10:01:09.457Z</time>
      </trkpt>
      <trkpt lat="44.6258" lon="0.89047">
        <ele>200.54577636719</ele>
        <time>2019-03-30T10:01:15.301Z</time>
      </trkpt>
      <trkpt lat="44.62505" lon="0.89124">
        <ele>210.75361633301</ele>
        <time>2019-03-30T10:01:21.160Z</time>
      </trkpt>
      <trkpt lat="44.6249" lon="0.89148">
        <ele>214.49711608887</ele>
        <time>2019-03-30T10:01:27.022Z</time>
      </trkpt>
      <trkpt lat="44.62476" lon="0.89171">
        <ele>216.62046813965</ele>
        <time>2019-03-30T10:01:32.888Z</time>
      </trkpt>
      <trkpt lat="44.62448" lon="0.89303">
        <ele>222.54566955566</ele>
        <time>2019-03-30T10:01:38.769Z</time>
      </trkpt>
      <trkpt lat="44.62447" lon="0.89305">
        <ele>222.48115539551</ele>
        <time>2019-03-30T10:01:44.651Z</time>
      </trkpt>
      <trkpt lat="44.62447" lon="0.89305">
        <ele>222.46238708496</ele>
        <time>2019-03-30T10:01:50.533Z</time>
      </trkpt>
      <trkpt lat="44.62447" lon="0.89305">
        <ele>222.46208190918</ele>
        <time>2019-03-30T10:01:56.415Z</time>
      </trkpt>
      <trkpt lat="44.62446" lon="0.89311">
        <ele>222.13313293457</ele>
        <time>2019-03-30T10:02:02.297Z</time>
      </trkpt>
      <trkpt lat="44.62445" lon="0.89459">
        <ele>215.80560302734</ele>
        <time>2019-03-30T10:02:08.196Z</time>
      </trkpt>
      <trkpt lat="44.62402" lon="0.8962">
        <ele>216.18771362305</ele>
        <time>2019-03-30T10:02:14.115Z</time>
      </trkpt>
      <trkpt lat="44.62377" lon="0.89721">
        <ele>222.80413818359</ele>
        <time>2019-03-30T10:02:20.046Z</time>
      </trkpt>
      <trkpt lat="44.62355" lon="0.899">
        <ele>231.53407287598</ele>
        <time>2019-03-30T10:02:25.998Z</time>
      </trkpt>
      <trkpt lat="44.62427" lon="0.89899">
        <ele>231.8087310791</ele>
        <time>2019-03-30T10:02:31.962Z</time>
      </trkpt>
      <trkpt lat="44.62498" lon="0.89919">
        <ele>229.42297363281</ele>
        <time>2019-03-30T10:02:37.937Z</time>
      </trkpt>
      <trkpt lat="44.627" lon="0.9">
        <ele>224.34936523438</ele>
        <time>2019-03-30T10:02:43.946Z</time>
      </trkpt>
      <trkpt lat="44.627" lon="0.9">
        <ele>224.34927368164</ele>
        <time>2019-03-30T10:02:49.955Z</time>
      </trkpt>
      <trkpt lat="44.62769" lon="0.90039">
        <ele>220.05851745605</ele>
        <time>2019-03-30T10:02:55.976Z</time>
      </trkpt>
      <trkpt lat="44.62769" lon="0.90039">
        <ele>220.05714416504</ele>
        <time>2019-03-30T10:03:01.997Z</time>
      </trkpt>
      <trkpt lat="44.6277" lon="0.90039">
        <ele>220.00325012207</ele>
        <time>2019-03-30T10:03:08.018Z</time>
      </trkpt>
      <trkpt lat="44.6277" lon="0.9004">
        <ele>219.97624206543</ele>
        <time>2019-03-30T10:03:14.039Z</time>
      </trkpt>
      <trkpt lat="44.6277" lon="0.9004">
        <ele>219.97644042969</ele>
        <time>2019-03-30T10:03:20.060Z</time>
      </trkpt>
      <trkpt lat="44.6277" lon="0.9004">
        <ele>219.97624206543</ele>
        <time>2019-03-30T10:03:26.081Z</time>
      </trkpt>
      <trkpt lat="44.62786" lon="0.90051">
        <ele>219.16119384766</ele>
        <time>2019-03-30T10:03:32.105Z</time>
      </trkpt>
      <trkpt lat="44.62831" lon="0.90111">
        <ele>215.63856506348</ele>
        <time>2019-03-30T10:03:38.139Z</time>
      </trkpt>
      <trkpt lat="44.62832" lon="0.90112">
        <ele>215.56428527832</ele>
        <time>2019-03-30T10:03:44.173Z</time>
      </trkpt>
      <trkpt lat="44.62832" lon="0.90113">
        <ele>215.53144836426</ele>
        <time>2019-03-30T10:03:50.207Z</time>
      </trkpt>
      <trkpt lat="44.62832" lon="0.90113">
        <ele>215.5308380127</ele>
        <time>2019-03-30T10:03:56.241Z</time>
      </trkpt>
      <trkpt lat="44.62843" lon="0.90127">
        <ele>214.7159576416</ele>
        <time>2019-03-30T10:04:02.277Z</time>
      </trkpt>
      <trkpt lat="44.629" lon="0.90237">
        <ele>211</ele>
        <time>2019-03-30T10:04:08.329Z</time>
      </trkpt>
      <trkpt lat="44.62931" lon="0.90282">
        <ele>211</ele>
        <time>2019-03-30T10:04:14.388Z</time>
      </trkpt>
      <trkpt lat="44.62932" lon="0.90283">
        <ele>211</ele>
        <time>2019-03-30T10:04:20.447Z</time>
      </trkpt>
      <trkpt lat="44.62932" lon="0.90284">
        <ele>211</ele>
        <time>2019-03-30T10:04:26.506Z</time>
      </trkpt>
      <trkpt lat="44.62932" lon="0.90284">
        <ele>211</ele>
        <time>2019-03-30T10:04:32.565Z</time>
      </trkpt>
      <trkpt lat="44.62938" lon="0.90292">
        <ele>211</ele>
        <time>2019-03-30T10:04:38.626Z</time>
      </trkpt>
      <trkpt lat="44.62961" lon="0.90305">
        <ele>210.58427429199</ele>
        <time>2019-03-30T10:04:44.690Z</time>
      </trkpt>
      <trkpt lat="44.63012" lon="0.90307">
        <ele>208.1328125</ele>
        <time>2019-03-30T10:04:50.763Z</time>
      </trkpt>
      <trkpt lat="44.63224" lon="0.90295">
        <ele>195.59512329102</ele>
        <time>2019-03-30T10:04:56.870Z</time>
      </trkpt>
      <trkpt lat="44.63224" lon="0.90295">
        <ele>195.59451293945</ele>
        <time>2019-03-30T10:05:02.977Z</time>
      </trkpt>
      <trkpt lat="44.63321" lon="0.90311">
        <ele>191.5846862793</ele>
        <time>2019-03-30T10:05:09.099Z</time>
      </trkpt>
      <trkpt lat="44.63361" lon="0.90306">
        <ele>191.89286804199</ele>
        <time>2019-03-30T10:05:15.228Z</time>
      </trkpt>
      <trkpt lat="44.63394" lon="0.90292">
        <ele>193.85000610352</ele>
        <time>2019-03-30T10:05:21.362Z</time>
      </trkpt>
      <trkpt lat="44.63409" lon="0.90286">
        <ele>194.92485046387</ele>
        <time>2019-03-30T10:05:27.499Z</time>
      </trkpt>
      <trkpt lat="44.63479" lon="0.90239">
        <ele>202.07232666016</ele>
        <time>2019-03-30T10:05:33.648Z</time>
      </trkpt>
      <trkpt lat="44.6351" lon="0.90237">
        <ele>204.32501220703</ele>
        <time>2019-03-30T10:05:39.802Z</time>
      </trkpt>
      <trkpt lat="44.63527" lon="0.90248">
        <ele>205.66374206543</ele>
        <time>2019-03-30T10:05:45.959Z</time>
      </trkpt>
      <trkpt lat="44.63568" lon="0.9034">
        <ele>209.634765625</ele>
        <time>2019-03-30T10:05:52.128Z</time>
      </trkpt>
      <trkpt lat="44.63591" lon="0.90371">
        <ele>211.30174255371</ele>
        <time>2019-03-30T10:05:58.303Z</time>
      </trkpt>
      <trkpt lat="44.63864" lon="0.90546">
        <ele>228.80830383301</ele>
        <time>2019-03-30T10:06:04.526Z</time>
      </trkpt>
      <trkpt lat="44.63864" lon="0.90547">
        <ele>228.82423400879</ele>
        <time>2019-03-30T10:06:10.749Z</time>
      </trkpt>
      <trkpt lat="44.63865" lon="0.90548">
        <ele>228.86157226562</ele>
        <time>2019-03-30T10:06:16.972Z</time>
      </trkpt>
      <trkpt lat="44.63866" lon="0.90548">
        <ele>228.88011169434</ele>
        <time>2019-03-30T10:06:23.195Z</time>
      </trkpt>
      <trkpt lat="44.63866" lon="0.90548">
        <ele>228.88041687012</ele>
        <time>2019-03-30T10:06:29.418Z</time>
      </trkpt>
      <trkpt lat="44.63924" lon="0.90616">
        <ele>227.31838989258</ele>
        <time>2019-03-30T10:06:35.653Z</time>
      </trkpt>
      <trkpt lat="44.63965" lon="0.90643">
        <ele>227.42294311523</ele>
        <time>2019-03-30T10:06:41.895Z</time>
      </trkpt>
      <trkpt lat="44.64035" lon="0.90665">
        <ele>230.17765808105</ele>
        <time>2019-03-30T10:06:48.149Z</time>
      </trkpt>
      <trkpt lat="44.64146" lon="0.90739">
        <ele>233.10028076172</ele>
        <time>2019-03-30T10:06:54.423Z</time>
      </trkpt>
      <trkpt lat="44.64203" lon="0.90742">
        <ele>226.59379577637</ele>
        <time>2019-03-30T10:07:00.706Z</time>
      </trkpt>
      <trkpt lat="44.64227" lon="0.90754">
        <ele>228.16423034668</ele>
        <time>2019-03-30T10:07:06.993Z</time>
      </trkpt>
      <trkpt lat="44.6428" lon="0.90793">
        <ele>232.8796081543</ele>
        <time>2019-03-30T10:07:13.289Z</time>
      </trkpt>
      <trkpt lat="44.6428" lon="0.90793">
        <ele>232.88059997559</ele>
        <time>2019-03-30T10:07:19.585Z</time>
      </trkpt>
      <trkpt lat="44.64281" lon="0.90794">
        <ele>232.98901367188</ele>
        <time>2019-03-30T10:07:25.882Z</time>
      </trkpt>
      <trkpt lat="44.64282" lon="0.90794">
        <ele>233.04522705078</ele>
        <time>2019-03-30T10:07:32.179Z</time>
      </trkpt>
      <trkpt lat="44.64282" lon="0.90794">
        <ele>233.0456237793</ele>
        <time>2019-03-30T10:07:38.476Z</time>
      </trkpt>
      <trkpt lat="44.64308" lon="0.90813">
        <ele>233.65127563477</ele>
        <time>2019-03-30T10:07:44.777Z</time>
      </trkpt>
      <trkpt lat="44.64341" lon="0.90827">
        <ele>232.81455993652</ele>
        <time>2019-03-30T10:07:51.084Z</time>
      </trkpt>
      <trkpt lat="44.64421" lon="0.90827">
        <ele>232.43473815918</ele>
        <time>2019-03-30T10:07:57.404Z</time>
      </trkpt>
      <trkpt lat="44.64421" lon="0.90827">
        <ele>232.43464660645</ele>
        <time>2019-03-30T10:08:03.724Z</time>
      </trkpt>
      <trkpt lat="44.64521" lon="0.91016">
        <ele>229.32916259766</ele>
        <time>2019-03-30T10:08:10.070Z</time>
      </trkpt>
      <trkpt lat="44.64521" lon="0.91018">
        <ele>229.29557800293</ele>
        <time>2019-03-30T10:08:16.417Z</time>
      </trkpt>
      <trkpt lat="44.64522" lon="0.91018">
        <ele>229.28369140625</ele>
        <time>2019-03-30T10:08:22.764Z</time>
      </trkpt>
      <trkpt lat="44.64522" lon="0.91018">
        <ele>229.2845916748</ele>
        <time>2019-03-30T10:08:29.111Z</time>
      </trkpt>
      <trkpt lat="44.64594" lon="0.91157">
        <ele>230.69314575195</ele>
        <time>2019-03-30T10:08:35.477Z</time>
      </trkpt>
      <trkpt lat="44.64659" lon="0.91271">
        <ele>236.1902923584</ele>
        <time>2019-03-30T10:08:41.860Z</time>
      </trkpt>
      <trkpt lat="44.64719" lon="0.9138">
        <ele>243.39637756348</ele>
        <time>2019-03-30T10:08:48.259Z</time>
      </trkpt>
      <trkpt lat="44.6473" lon="0.91408">
        <ele>244</ele>
        <time>2019-03-30T10:08:54.661Z</time>
      </trkpt>
      <trkpt lat="44.64731" lon="0.91431">
        <ele>244.46099853516</ele>
        <time>2019-03-30T10:09:01.066Z</time>
      </trkpt>
      <trkpt lat="44.64651" lon="0.91614">
        <ele>246.63925170898</ele>
        <time>2019-03-30T10:09:07.496Z</time>
      </trkpt>
      <trkpt lat="44.64628" lon="0.91722">
        <ele>246.17774963379</ele>
        <time>2019-03-30T10:09:13.938Z</time>
      </trkpt>
      <trkpt lat="44.64627" lon="0.91724">
        <ele>246.19013977051</ele>
        <time>2019-03-30T10:09:20.381Z</time>
      </trkpt>
      <trkpt lat="44.64627" lon="0.91724">
        <ele>246.1540222168</ele>
        <time>2019-03-30T10:09:26.824Z</time>
      </trkpt>
      <trkpt lat="44.64627" lon="0.91724">
        <ele>246.15524291992</ele>
        <time>2019-03-30T10:09:33.267Z</time>
      </trkpt>
      <trkpt lat="44.64623" lon="0.91741">
        <ele>245.900390625</ele>
        <time>2019-03-30T10:09:39.712Z</time>
      </trkpt>
      <trkpt lat="44.64619" lon="0.91791">
        <ele>245.99325561523</ele>
        <time>2019-03-30T10:09:46.163Z</time>
      </trkpt>
      <trkpt lat="44.64622" lon="0.91833">
        <ele>246.72090148926</ele>
        <time>2019-03-30T10:09:52.618Z</time>
      </trkpt>
      <trkpt lat="44.64688" lon="0.92176">
        <ele>245.95826721191</ele>
        <time>2019-03-30T10:09:59.114Z</time>
      </trkpt>
      <trkpt lat="44.64723" lon="0.92235">
        <ele>245.13278198242</ele>
        <time>2019-03-30T10:10:05.619Z</time>
      </trkpt>
      <trkpt lat="44.6476" lon="0.92283">
        <ele>241.44372558594</ele>
        <time>2019-03-30T10:10:12.132Z</time>
      </trkpt>
      <trkpt lat="44.64787" lon="0.92301">
        <ele>238.91459655762</ele>
        <time>2019-03-30T10:10:18.650Z</time>
      </trkpt>
      <trkpt lat="44.64787" lon="0.92301">
        <ele>238.91540527344</ele>
        <time>2019-03-30T10:10:25.168Z</time>
      </trkpt>
      <trkpt lat="44.64861" lon="0.92292">
        <ele>232.05505371094</ele>
        <time>2019-03-30T10:10:31.697Z</time>
      </trkpt>
      <trkpt lat="44.64861" lon="0.92292">
        <ele>232.04977416992</ele>
        <time>2019-03-30T10:10:38.226Z</time>
      </trkpt>
      <trkpt lat="44.64862" lon="0.92292">
        <ele>231.94621276855</ele>
        <time>2019-03-30T10:10:44.756Z</time>
      </trkpt>
      <trkpt lat="44.64863" lon="0.92292">
        <ele>231.88084411621</ele>
        <time>2019-03-30T10:10:51.286Z</time>
      </trkpt>
      <trkpt lat="44.65019" lon="0.92273">
        <ele>240.1822052002</ele>
        <time>2019-03-30T10:10:57.841Z</time>
      </trkpt>
      <trkpt lat="44.65043" lon="0.92273">
        <ele>240.67852783203</ele>
        <time>2019-03-30T10:11:04.400Z</time>
      </trkpt>
      <trkpt lat="44.65056" lon="0.92286">
        <ele>240.98756408691</ele>
        <time>2019-03-30T10:11:10.961Z</time>
      </trkpt>
      <trkpt lat="44.65064" lon="0.92285">
        <ele>241.07113647461</ele>
        <time>2019-03-30T10:11:17.523Z</time>
      </trkpt>
      <trkpt lat="44.65078" lon="0.9233">
        <ele>240.95205688477</ele>
        <time>2019-03-30T10:11:24.091Z</time>
      </trkpt>
      <trkpt lat="44.6508" lon="0.92365">
        <ele>240.4665222168</ele>
        <time>2019-03-30T10:11:30.663Z</time>
      </trkpt>
      <trkpt lat="44.65059" lon="0.92369">
        <ele>240.72398376465</ele>
        <time>2019-03-30T10:11:37.239Z</time>
      </trkpt>
      <trkpt lat="44.6504" lon="0.92382">
        <ele>240.95568847656</ele>
        <time>2019-03-30T10:11:43.818Z</time>
      </trkpt>
      <trkpt lat="44.65024" lon="0.92405">
        <ele>240.49154663086</ele>
        <time>2019-03-30T10:11:50.401Z</time>
      </trkpt>
      <trkpt lat="44.65018" lon="0.92445">
        <ele>240.98010253906</ele>
        <time>2019-03-30T10:11:56.988Z</time>
      </trkpt>
      <trkpt lat="44.64945" lon="0.92615">
        <ele>251.93325805664</ele>
        <time>2019-03-30T10:12:03.598Z</time>
      </trkpt>
      <trkpt lat="44.64914" lon="0.92777">
        <ele>262.35656738281</ele>
        <time>2019-03-30T10:12:10.227Z</time>
      </trkpt>
      <trkpt lat="44.64914" lon="0.92779">
        <ele>262.39208984375</ele>
        <time>2019-03-30T10:12:16.856Z</time>
      </trkpt>
      <trkpt lat="44.64914" lon="0.92779">
        <ele>262.40460205078</ele>
        <time>2019-03-30T10:12:23.485Z</time>
      </trkpt>
      <trkpt lat="44.64914" lon="0.92779">
        <ele>262.40377807617</ele>
        <time>2019-03-30T10:12:30.114Z</time>
      </trkpt>
      <trkpt lat="44.64909" lon="0.92806">
        <ele>262.92129516602</ele>
        <time>2019-03-30T10:12:36.746Z</time>
      </trkpt>
      <trkpt lat="44.64868" lon="0.92915">
        <ele>255.28367614746</ele>
        <time>2019-03-30T10:12:43.393Z</time>
      </trkpt>
      <trkpt lat="44.64871" lon="0.93103">
        <ele>250.6742401123</ele>
        <time>2019-03-30T10:12:50.061Z</time>
      </trkpt>
      <trkpt lat="44.64884" lon="0.93168">
        <ele>252.7847442627</ele>
        <time>2019-03-30T10:12:56.737Z</time>
      </trkpt>
      <trkpt lat="44.64883" lon="0.93168">
        <ele>252.78503417969</ele>
        <time>2019-03-30T10:13:03.413Z</time>
      </trkpt>
      <trkpt lat="44.64853" lon="0.93358">
        <ele>259.37811279297</ele>
        <time>2019-03-30T10:13:10.111Z</time>
      </trkpt>
      <trkpt lat="44.64866" lon="0.93416">
        <ele>258.33181762695</ele>
        <time>2019-03-30T10:13:16.816Z</time>
      </trkpt>
      <trkpt lat="44.64896" lon="0.93499">
        <ele>257.55010986328</ele>
        <time>2019-03-30T10:13:23.531Z</time>
      </trkpt>
      <trkpt lat="44.64911" lon="0.93581">
        <ele>261.78750610352</ele>
        <time>2019-03-30T10:13:30.256Z</time>
      </trkpt>
      <trkpt lat="44.64955" lon="0.93648">
        <ele>261.55261230469</ele>
        <time>2019-03-30T10:13:36.992Z</time>
      </trkpt>
      <trkpt lat="44.64984" lon="0.93757">
        <ele>254.04154968262</ele>
        <time>2019-03-30T10:13:43.741Z</time>
      </trkpt>
      <trkpt lat="44.64988" lon="0.93823">
        <ele>249.69065856934</ele>
        <time>2019-03-30T10:13:50.497Z</time>
      </trkpt>
      <trkpt lat="44.64981" lon="0.93878">
        <ele>251.0147857666</ele>
        <time>2019-03-30T10:13:57.260Z</time>
      </trkpt>
      <trkpt lat="44.64981" lon="0.9388">
        <ele>251.12284851074</ele>
        <time>2019-03-30T10:14:04.023Z</time>
      </trkpt>
      <trkpt lat="44.64981" lon="0.93881">
        <ele>251.17697143555</ele>
        <time>2019-03-30T10:14:10.786Z</time>
      </trkpt>
      <trkpt lat="44.64981" lon="0.93881">
        <ele>251.17445373535</ele>
        <time>2019-03-30T10:14:17.549Z</time>
      </trkpt>
      <trkpt lat="44.64968" lon="0.93993">
        <ele>254.30102539062</ele>
        <time>2019-03-30T10:14:24.325Z</time>
      </trkpt>
      <trkpt lat="44.64978" lon="0.94063">
        <ele>248.603515625</ele>
        <time>2019-03-30T10:14:31.109Z</time>
      </trkpt>
      <trkpt lat="44.64978" lon="0.94141">
        <ele>243.4077911377</ele>
        <time>2019-03-30T10:14:37.902Z</time>
      </trkpt>
      <trkpt lat="44.64985" lon="0.94167">
        <ele>241.16798400879</ele>
        <time>2019-03-30T10:14:44.698Z</time>
      </trkpt>
      <trkpt lat="44.65014" lon="0.94205">
        <ele>236.75762939453</ele>
        <time>2019-03-30T10:14:51.501Z</time>
      </trkpt>
      <trkpt lat="44.65171" lon="0.94366">
        <ele>237.46635437012</ele>
        <time>2019-03-30T10:14:58.335Z</time>
      </trkpt>
      <trkpt lat="44.65286" lon="0.9445">
        <ele>238.59425354004</ele>
        <time>2019-03-30T10:15:05.190Z</time>
      </trkpt>
      <trkpt lat="44.65298" lon="0.9447">
        <ele>238.79377746582</ele>
        <time>2019-03-30T10:15:12.048Z</time>
      </trkpt>
      <trkpt lat="44.65296" lon="0.9451">
        <ele>241.01063537598</ele>
        <time>2019-03-30T10:15:18.910Z</time>
      </trkpt>
      <trkpt lat="44.65265" lon="0.94577">
        <ele>245.29190063477</ele>
        <time>2019-03-30T10:15:25.781Z</time>
      </trkpt>
      <trkpt lat="44.65248" lon="0.94632">
        <ele>245.23345947266</ele>
        <time>2019-03-30T10:15:32.659Z</time>
      </trkpt>
      <trkpt lat="44.65258" lon="0.94803">
        <ele>245.31880187988</ele>
        <time>2019-03-30T10:15:39.557Z</time>
      </trkpt>
      <trkpt lat="44.65234" lon="0.94903">
        <ele>249.02194213867</ele>
        <time>2019-03-30T10:15:46.467Z</time>
      </trkpt>
      <trkpt lat="44.65165" lon="0.95033">
        <ele>253.81423950195</ele>
        <time>2019-03-30T10:15:53.395Z</time>
      </trkpt>
      <trkpt lat="44.65128" lon="0.95133">
        <ele>258.02096557617</ele>
        <time>2019-03-30T10:16:00.336Z</time>
      </trkpt>
      <trkpt lat="44.65121" lon="0.95305">
        <ele>267.80215454102</ele>
        <time>2019-03-30T10:16:07.297Z</time>
      </trkpt>
      <trkpt lat="44.65135" lon="0.95361">
        <ele>267.24014282227</ele>
        <time>2019-03-30T10:16:14.265Z</time>
      </trkpt>
      <trkpt lat="44.65157" lon="0.95405">
        <ele>266.18460083008</ele>
        <time>2019-03-30T10:16:21.239Z</time>
      </trkpt>
      <trkpt lat="44.65271" lon="0.95509">
        <ele>257.81341552734</ele>
        <time>2019-03-30T10:16:28.234Z</time>
      </trkpt>
      <trkpt lat="44.65331" lon="0.9563">
        <ele>258.29266357422</ele>
        <time>2019-03-30T10:16:35.246Z</time>
      </trkpt>
      <trkpt lat="44.65379" lon="0.95667">
        <ele>259.35543823242</ele>
        <time>2019-03-30T10:16:42.267Z</time>
      </trkpt>
      <trkpt lat="44.65379" lon="0.95667">
        <ele>259.35525512695</ele>
        <time>2019-03-30T10:16:49.288Z</time>
      </trkpt>
      <trkpt lat="44.6538" lon="0.95668">
        <ele>259.31747436523</ele>
        <time>2019-03-30T10:16:56.309Z</time>
      </trkpt>
      <trkpt lat="44.65381" lon="0.95669">
        <ele>259.29483032227</ele>
        <time>2019-03-30T10:17:03.330Z</time>
      </trkpt>
      <trkpt lat="44.65381" lon="0.95669">
        <ele>259.29553222656</ele>
        <time>2019-03-30T10:17:10.351Z</time>
      </trkpt>
      <trkpt lat="44.65454" lon="0.95725">
        <ele>256.80477905273</ele>
        <time>2019-03-30T10:17:17.386Z</time>
      </trkpt>
      <trkpt lat="44.65485" lon="0.95763">
        <ele>253.14221191406</ele>
        <time>2019-03-30T10:17:24.427Z</time>
      </trkpt>
      <trkpt lat="44.6551" lon="0.95872">
        <ele>255.75859069824</ele>
        <time>2019-03-30T10:17:31.482Z</time>
      </trkpt>
      <trkpt lat="44.65525" lon="0.95888">
        <ele>255.19221496582</ele>
        <time>2019-03-30T10:17:38.540Z</time>
      </trkpt>
      <trkpt lat="44.65758" lon="0.95973">
        <ele>247.50093078613</ele>
        <time>2019-03-30T10:17:45.636Z</time>
      </trkpt>
      <trkpt lat="44.65804" lon="0.95971">
        <ele>246.93316650391</ele>
        <time>2019-03-30T10:17:52.739Z</time>
      </trkpt>
      <trkpt lat="44.65804" lon="0.95971">
        <ele>246.93353271484</ele>
        <time>2019-03-30T10:17:59.842Z</time>
      </trkpt>
      <trkpt lat="44.65805" lon="0.95971">
        <ele>246.9451751709</ele>
        <time>2019-03-30T10:18:06.946Z</time>
      </trkpt>
      <trkpt lat="44.65806" lon="0.95971">
        <ele>246.95268249512</ele>
        <time>2019-03-30T10:18:14.050Z</time>
      </trkpt>
      <trkpt lat="44.65806" lon="0.95971">
        <ele>246.95248413086</ele>
        <time>2019-03-30T10:18:21.154Z</time>
      </trkpt>
      <trkpt lat="44.65846" lon="0.95969">
        <ele>247.3129119873</ele>
        <time>2019-03-30T10:18:28.264Z</time>
      </trkpt>
      <trkpt lat="44.65906" lon="0.95994">
        <ele>248.23727416992</ele>
        <time>2019-03-30T10:18:35.384Z</time>
      </trkpt>
      <trkpt lat="44.65961" lon="0.95995">
        <ele>248.53642272949</ele>
        <time>2019-03-30T10:18:42.513Z</time>
      </trkpt>
      <trkpt lat="44.66023" lon="0.96046">
        <ele>251.38093566895</ele>
        <time>2019-03-30T10:18:49.653Z</time>
      </trkpt>
      <trkpt lat="44.65956" lon="0.96181">
        <ele>254.86253356934</ele>
        <time>2019-03-30T10:18:56.812Z</time>
      </trkpt>
      <trkpt lat="44.65937" lon="0.96194">
        <ele>256.35296630859</ele>
        <time>2019-03-30T10:19:03.975Z</time>
      </trkpt>
      <trkpt lat="44.65888" lon="0.96206">
        <ele>257.33877563477</ele>
        <time>2019-03-30T10:19:11.146Z</time>
      </trkpt>
      <trkpt lat="44.65819" lon="0.96321">
        <ele>258.65649414062</ele>
        <time>2019-03-30T10:19:18.334Z</time>
      </trkpt>
      <trkpt lat="44.65818" lon="0.96322">
        <ele>258.67053222656</ele>
        <time>2019-03-30T10:19:25.522Z</time>
      </trkpt>
      <trkpt lat="44.65818" lon="0.96322">
        <ele>258.67388916016</ele>
        <time>2019-03-30T10:19:32.710Z</time>
      </trkpt>
      <trkpt lat="44.65818" lon="0.96323">
        <ele>258.67639160156</ele>
        <time>2019-03-30T10:19:39.898Z</time>
      </trkpt>
      <trkpt lat="44.65818" lon="0.96323">
        <ele>258.67639160156</ele>
        <time>2019-03-30T10:19:47.086Z</time>
      </trkpt>
      <trkpt lat="44.65772" lon="0.96416">
        <ele>262.95568847656</ele>
        <time>2019-03-30T10:19:54.287Z</time>
      </trkpt>
      <trkpt lat="44.65728" lon="0.96465">
        <ele>262.49871826172</ele>
        <time>2019-03-30T10:20:01.497Z</time>
      </trkpt>
      <trkpt lat="44.65664" lon="0.9651">
        <ele>262.92761230469</ele>
        <time>2019-03-30T10:20:08.718Z</time>
      </trkpt>
      <trkpt lat="44.6565" lon="0.96567">
        <ele>262.4089050293</ele>
        <time>2019-03-30T10:20:15.946Z</time>
      </trkpt>
      <trkpt lat="44.65509" lon="0.9696">
        <ele>262.72024536133</ele>
        <time>2019-03-30T10:20:23.224Z</time>
      </trkpt>
      <trkpt lat="44.65509" lon="0.96962">
        <ele>262.69116210938</ele>
        <time>2019-03-30T10:20:30.503Z</time>
      </trkpt>
      <trkpt lat="44.65509" lon="0.96962">
        <ele>262.68515014648</ele>
        <time>2019-03-30T10:20:37.782Z</time>
      </trkpt>
      <trkpt lat="44.65509" lon="0.96962">
        <ele>262.68557739258</ele>
        <time>2019-03-30T10:20:45.061Z</time>
      </trkpt>
      <trkpt lat="44.65499" lon="0.96989">
        <ele>262.39138793945</ele>
        <time>2019-03-30T10:20:52.343Z</time>
      </trkpt>
      <trkpt lat="44.65485" lon="0.97059">
        <ele>264.37319946289</ele>
        <time>2019-03-30T10:20:59.633Z</time>
      </trkpt>
      <trkpt lat="44.65488" lon="0.97131">
        <ele>263.54946899414</ele>
        <time>2019-03-30T10:21:06.932Z</time>
      </trkpt>
      <trkpt lat="44.65488" lon="0.97131">
        <ele>263.54934692383</ele>
        <time>2019-03-30T10:21:14.231Z</time>
      </trkpt>
      <trkpt lat="44.65491" lon="0.97157">
        <ele>263.07522583008</ele>
        <time>2019-03-30T10:21:21.533Z</time>
      </trkpt>
      <trkpt lat="44.65552" lon="0.97552">
        <ele>273.78427124023</ele>
        <time>2019-03-30T10:21:28.881Z</time>
      </trkpt>
      <trkpt lat="44.65542" lon="0.97585">
        <ele>273.88519287109</ele>
        <time>2019-03-30T10:21:36.233Z</time>
      </trkpt>
      <trkpt lat="44.65471" lon="0.97687">
        <ele>271.63299560547</ele>
        <time>2019-03-30T10:21:43.601Z</time>
      </trkpt>
      <trkpt lat="44.65427" lon="0.97733">
        <ele>266.65603637695</ele>
        <time>2019-03-30T10:21:50.978Z</time>
      </trkpt>
      <trkpt lat="44.65404" lon="0.97754">
        <ele>263.93341064453</ele>
        <time>2019-03-30T10:21:58.359Z</time>
      </trkpt>
      <trkpt lat="44.65385" lon="0.97787">
        <ele>261.40426635742</ele>
        <time>2019-03-30T10:22:05.745Z</time>
      </trkpt>
      <trkpt lat="44.65378" lon="0.97818">
        <ele>259.38342285156</ele>
        <time>2019-03-30T10:22:13.135Z</time>
      </trkpt>
      <trkpt lat="44.6538" lon="0.97874">
        <ele>260.54193115234</ele>
        <time>2019-03-30T10:22:20.531Z</time>
      </trkpt>
      <trkpt lat="44.65394" lon="0.97977">
        <ele>256.47482299805</ele>
        <time>2019-03-30T10:22:27.939Z</time>
      </trkpt>
      <trkpt lat="44.65446" lon="0.98049">
        <ele>251.60902404785</ele>
        <time>2019-03-30T10:22:35.359Z</time>
      </trkpt>
      <trkpt lat="44.65448" lon="0.98093">
        <ele>251.10255432129</ele>
        <time>2019-03-30T10:22:42.784Z</time>
      </trkpt>
      <trkpt lat="44.6544" lon="0.9819">
        <ele>251.73501586914</ele>
        <time>2019-03-30T10:22:50.220Z</time>
      </trkpt>
      <trkpt lat="44.65427" lon="0.98264">
        <ele>249.97564697266</ele>
        <time>2019-03-30T10:22:57.665Z</time>
      </trkpt>
      <trkpt lat="44.65412" lon="0.98315">
        <ele>249.08041381836</ele>
        <time>2019-03-30T10:23:05.116Z</time>
      </trkpt>
      <trkpt lat="44.65368" lon="0.98365">
        <ele>250.4324798584</ele>
        <time>2019-03-30T10:23:12.576Z</time>
      </trkpt>
      <trkpt lat="44.65357" lon="0.98392">
        <ele>252.46157836914</ele>
        <time>2019-03-30T10:23:20.040Z</time>
      </trkpt>
      <trkpt lat="44.65354" lon="0.98423">
        <ele>253.1502532959</ele>
        <time>2019-03-30T10:23:27.507Z</time>
      </trkpt>
      <trkpt lat="44.6535" lon="0.98423">
        <ele>253.65423583984</ele>
        <time>2019-03-30T10:23:34.975Z</time>
      </trkpt>
      <trkpt lat="44.6535" lon="0.98423">
        <ele>253.6547088623</ele>
        <time>2019-03-30T10:23:42.443Z</time>
      </trkpt>
      <trkpt lat="44.65349" lon="0.98423">
        <ele>253.81690979004</ele>
        <time>2019-03-30T10:23:49.911Z</time>
      </trkpt>
      <trkpt lat="44.65348" lon="0.98423">
        <ele>253.92289733887</ele>
        <time>2019-03-30T10:23:57.380Z</time>
      </trkpt>
      <trkpt lat="44.65348" lon="0.98423">
        <ele>253.92491149902</ele>
        <time>2019-03-30T10:24:04.849Z</time>
      </trkpt>
      <trkpt lat="44.65355" lon="0.98423">
        <ele>253.14924621582</ele>
        <time>2019-03-30T10:24:12.319Z</time>
      </trkpt>
      <trkpt lat="44.65373" lon="0.98574">
        <ele>251.02014160156</ele>
        <time>2019-03-30T10:24:19.806Z</time>
      </trkpt>
      <trkpt lat="44.65402" lon="0.98725">
        <ele>248.50337219238</ele>
        <time>2019-03-30T10:24:27.311Z</time>
      </trkpt>
      <trkpt lat="44.65419" lon="0.98762">
        <ele>247.9341583252</ele>
        <time>2019-03-30T10:24:34.821Z</time>
      </trkpt>
      <trkpt lat="44.65458" lon="0.98798">
        <ele>245.10243225098</ele>
        <time>2019-03-30T10:24:42.338Z</time>
      </trkpt>
      <trkpt lat="44.6548" lon="0.98832">
        <ele>242.80244445801</ele>
        <time>2019-03-30T10:24:49.861Z</time>
      </trkpt>
      <trkpt lat="44.65484" lon="0.98873">
        <ele>243.00163269043</ele>
        <time>2019-03-30T10:24:57.388Z</time>
      </trkpt>
      <trkpt lat="44.65477" lon="0.98955">
        <ele>240.46998596191</ele>
        <time>2019-03-30T10:25:04.925Z</time>
      </trkpt>
      <trkpt lat="44.65477" lon="0.98957">
        <ele>240.35348510742</ele>
        <time>2019-03-30T10:25:12.462Z</time>
      </trkpt>
      <trkpt lat="44.65477" lon="0.98958">
        <ele>240.28913879395</ele>
        <time>2019-03-30T10:25:19.999Z</time>
      </trkpt>
      <trkpt lat="44.65477" lon="0.98958">
        <ele>240.29093933105</ele>
        <time>2019-03-30T10:25:27.536Z</time>
      </trkpt>
      <trkpt lat="44.65473" lon="0.99008">
        <ele>238.39996337891</ele>
        <time>2019-03-30T10:25:35.079Z</time>
      </trkpt>
      <trkpt lat="44.65448" lon="0.991">
        <ele>233.83428955078</ele>
        <time>2019-03-30T10:25:42.633Z</time>
      </trkpt>
      <trkpt lat="44.65423" lon="0.99188">
        <ele>231.06378173828</ele>
        <time>2019-03-30T10:25:50.198Z</time>
      </trkpt>
      <trkpt lat="44.65423" lon="0.99188">
        <ele>231.06398010254</ele>
        <time>2019-03-30T10:25:57.763Z</time>
      </trkpt>
      <trkpt lat="44.65395" lon="0.99285">
        <ele>224.3077545166</ele>
        <time>2019-03-30T10:26:05.340Z</time>
      </trkpt>
      <trkpt lat="44.65395" lon="0.99285">
        <ele>224.30754089355</ele>
        <time>2019-03-30T10:26:12.917Z</time>
      </trkpt>
      <trkpt lat="44.6535" lon="0.99437">
        <ele>218.83929443359</ele>
        <time>2019-03-30T10:26:20.513Z</time>
      </trkpt>
      <trkpt lat="44.65341" lon="0.99449">
        <ele>218.9557800293</ele>
        <time>2019-03-30T10:26:28.111Z</time>
      </trkpt>
      <trkpt lat="44.65236" lon="0.99463">
        <ele>220.69813537598</ele>
        <time>2019-03-30T10:26:35.726Z</time>
      </trkpt>
      <trkpt lat="44.65212" lon="0.99479">
        <ele>220.56428527832</ele>
        <time>2019-03-30T10:26:43.345Z</time>
      </trkpt>
      <trkpt lat="44.65142" lon="0.99547">
        <ele>215.05548095703</ele>
        <time>2019-03-30T10:26:50.977Z</time>
      </trkpt>
      <trkpt lat="44.65141" lon="0.99548">
        <ele>214.81887817383</ele>
        <time>2019-03-30T10:26:58.610Z</time>
      </trkpt>
      <trkpt lat="44.65141" lon="0.99548">
        <ele>214.66044616699</ele>
        <time>2019-03-30T10:27:06.243Z</time>
      </trkpt>
      <trkpt lat="44.65141" lon="0.99548">
        <ele>214.66296386719</ele>
        <time>2019-03-30T10:27:13.876Z</time>
      </trkpt>
      <trkpt lat="44.65076" lon="0.99611">
        <ele>214.05526733398</ele>
        <time>2019-03-30T10:27:21.521Z</time>
      </trkpt>
      <trkpt lat="44.64999" lon="0.99671">
        <ele>210.44473266602</ele>
        <time>2019-03-30T10:27:29.180Z</time>
      </trkpt>
      <trkpt lat="44.64916" lon="0.9974">
        <ele>208.62225341797</ele>
        <time>2019-03-30T10:27:36.855Z</time>
      </trkpt>
      <trkpt lat="44.64724" lon="0.99869">
        <ele>226.56159973145</ele>
        <time>2019-03-30T10:27:44.564Z</time>
      </trkpt>
      <trkpt lat="44.64666" lon="0.99917">
        <ele>220.43824768066</ele>
        <time>2019-03-30T10:27:52.284Z</time>
      </trkpt>
      <trkpt lat="44.64666" lon="0.99917">
        <ele>220.43794250488</ele>
        <time>2019-03-30T10:28:00.004Z</time>
      </trkpt>
      <trkpt lat="44.64665" lon="0.99918">
        <ele>220.24613952637</ele>
        <time>2019-03-30T10:28:07.724Z</time>
      </trkpt>
      <trkpt lat="44.64664" lon="0.99918">
        <ele>220.11134338379</ele>
        <time>2019-03-30T10:28:15.444Z</time>
      </trkpt>
      <trkpt lat="44.64664" lon="0.99918">
        <ele>220.11285400391</ele>
        <time>2019-03-30T10:28:23.164Z</time>
      </trkpt>
      <trkpt lat="44.64615" lon="0.9996">
        <ele>219.78729248047</ele>
        <time>2019-03-30T10:28:30.893Z</time>
      </trkpt>
      <trkpt lat="44.64595" lon="0.99987">
        <ele>221.72103881836</ele>
        <time>2019-03-30T10:28:38.627Z</time>
      </trkpt>
      <trkpt lat="44.64592" lon="1">
        <ele>222.2230682373</ele>
        <time>2019-03-30T10:28:46.362Z</time>
      </trkpt>
      <trkpt lat="44.64592" lon="1">
        <ele>222.22357177734</ele>
        <time>2019-03-30T10:28:54.097Z</time>
      </trkpt>
      <trkpt lat="44.64574" lon="1.00121">
        <ele>223.66177368164</ele>
        <time>2019-03-30T10:29:01.846Z</time>
      </trkpt>
      <trkpt lat="44.64542" lon="1.00105">
        <ele>223.46868896484</ele>
        <time>2019-03-30T10:29:09.601Z</time>
      </trkpt>
      <trkpt lat="44.64545" lon="1.00162">
        <ele>221.71942138672</ele>
        <time>2019-03-30T10:29:17.362Z</time>
      </trkpt>
      <trkpt lat="44.64564" lon="1.00188">
        <ele>221.69407653809</ele>
        <time>2019-03-30T10:29:25.128Z</time>
      </trkpt>
      <trkpt lat="44.64561" lon="1.00204">
        <ele>220.9663848877</ele>
        <time>2019-03-30T10:29:32.896Z</time>
      </trkpt>
      <trkpt lat="44.64556" lon="1.00245">
        <ele>217.5757598877</ele>
        <time>2019-03-30T10:29:40.668Z</time>
      </trkpt>
      <trkpt lat="44.64527" lon="1.00302">
        <ele>212.00610351562</ele>
        <time>2019-03-30T10:29:48.448Z</time>
      </trkpt>
      <trkpt lat="44.64493" lon="1.00329">
        <ele>205.63928222656</ele>
        <time>2019-03-30T10:29:56.235Z</time>
      </trkpt>
      <trkpt lat="44.6446" lon="1.00329">
        <ele>203.66479492188</ele>
        <time>2019-03-30T10:30:04.027Z</time>
      </trkpt>
      <trkpt lat="44.64445" lon="1.00346">
        <ele>203.8936920166</ele>
        <time>2019-03-30T10:30:11.822Z</time>
      </trkpt>
      <trkpt lat="44.64459" lon="1.00459">
        <ele>199.85626220703</ele>
        <time>2019-03-30T10:30:19.630Z</time>
      </trkpt>
      <trkpt lat="44.6448" lon="1.00589">
        <ele>204.4571685791</ele>
        <time>2019-03-30T10:30:27.453Z</time>
      </trkpt>
      <trkpt lat="44.64478" lon="1.00611">
        <ele>206.38804626465</ele>
        <time>2019-03-30T10:30:35.279Z</time>
      </trkpt>
      <trkpt lat="44.64468" lon="1.00629">
        <ele>206.42665100098</ele>
        <time>2019-03-30T10:30:43.107Z</time>
      </trkpt>
      <trkpt lat="44.64451" lon="1.00642">
        <ele>204.9017791748</ele>
        <time>2019-03-30T10:30:50.938Z</time>
      </trkpt>
      <trkpt lat="44.64389" lon="1.0066">
        <ele>203.96853637695</ele>
        <time>2019-03-30T10:30:58.779Z</time>
      </trkpt>
      <trkpt lat="44.64266" lon="1.00719">
        <ele>199.63098144531</ele>
        <time>2019-03-30T10:31:06.641Z</time>
      </trkpt>
      <trkpt lat="44.64246" lon="1.00734">
        <ele>200.22946166992</ele>
        <time>2019-03-30T10:31:14.507Z</time>
      </trkpt>
      <trkpt lat="44.64231" lon="1.00762">
        <ele>201.73822021484</ele>
        <time>2019-03-30T10:31:22.377Z</time>
      </trkpt>
      <trkpt lat="44.6422" lon="1.00796">
        <ele>199.40185546875</ele>
        <time>2019-03-30T10:31:30.251Z</time>
      </trkpt>
      <trkpt lat="44.64212" lon="1.00881">
        <ele>197.32620239258</ele>
        <time>2019-03-30T10:31:38.135Z</time>
      </trkpt>
      <trkpt lat="44.64212" lon="1.00881">
        <ele>197.3251953125</ele>
        <time>2019-03-30T10:31:46.019Z</time>
      </trkpt>
      <trkpt lat="44.64239" lon="1.00976">
        <ele>199.33738708496</ele>
        <time>2019-03-30T10:31:53.915Z</time>
      </trkpt>
      <trkpt lat="44.64239" lon="1.00978">
        <ele>199.19491577148</ele>
        <time>2019-03-30T10:32:01.811Z</time>
      </trkpt>
      <trkpt lat="44.64239" lon="1.00979">
        <ele>199.11024475098</ele>
        <time>2019-03-30T10:32:09.707Z</time>
      </trkpt>
      <trkpt lat="44.64239" lon="1.00979">
        <ele>199.11164855957</ele>
        <time>2019-03-30T10:32:17.603Z</time>
      </trkpt>
      <trkpt lat="44.64254" lon="1.01031">
        <ele>195.54145812988</ele>
        <time>2019-03-30T10:32:25.505Z</time>
      </trkpt>
      <trkpt lat="44.64322" lon="1.01143">
        <ele>198.32722473145</ele>
        <time>2019-03-30T10:32:33.424Z</time>
      </trkpt>
      <trkpt lat="44.64349" lon="1.01212">
        <ele>194.84826660156</ele>
        <time>2019-03-30T10:32:41.352Z</time>
      </trkpt>
      <trkpt lat="44.64371" lon="1.01287">
        <ele>191.11877441406</ele>
        <time>2019-03-30T10:32:49.289Z</time>
      </trkpt>
      <trkpt lat="44.64394" lon="1.01393">
        <ele>192.20932006836</ele>
        <time>2019-03-30T10:32:57.239Z</time>
      </trkpt>
      <trkpt lat="44.64395" lon="1.0148">
        <ele>190.33258056641</ele>
        <time>2019-03-30T10:33:05.199Z</time>
      </trkpt>
      <trkpt lat="44.64388" lon="1.0155">
        <ele>192.55055236816</ele>
        <time>2019-03-30T10:33:13.167Z</time>
      </trkpt>
      <trkpt lat="44.64351" lon="1.0164">
        <ele>194.9704284668</ele>
        <time>2019-03-30T10:33:21.147Z</time>
      </trkpt>
      <trkpt lat="44.64323" lon="1.01685">
        <ele>198.26969909668</ele>
        <time>2019-03-30T10:33:29.134Z</time>
      </trkpt>
      <trkpt lat="44.64279" lon="1.01724">
        <ele>192.07402038574</ele>
        <time>2019-03-30T10:33:37.129Z</time>
      </trkpt>
      <trkpt lat="44.64217" lon="1.01745">
        <ele>193.21846008301</ele>
        <time>2019-03-30T10:33:45.135Z</time>
      </trkpt>
      <trkpt lat="44.64183" lon="1.01777">
        <ele>193.11437988281</ele>
        <time>2019-03-30T10:33:53.147Z</time>
      </trkpt>
      <trkpt lat="44.64079" lon="1.02034">
        <ele>190.54777526855</ele>
        <time>2019-03-30T10:34:01.193Z</time>
      </trkpt>
      <trkpt lat="44.64029" lon="1.0218">
        <ele>186.83023071289</ele>
        <time>2019-03-30T10:34:09.257Z</time>
      </trkpt>
      <trkpt lat="44.63991" lon="1.02247">
        <ele>189.71543884277</ele>
        <time>2019-03-30T10:34:17.331Z</time>
      </trkpt>
      <trkpt lat="44.63961" lon="1.02283">
        <ele>186.63056945801</ele>
        <time>2019-03-30T10:34:25.411Z</time>
      </trkpt>
      <trkpt lat="44.63917" lon="1.02321">
        <ele>185.18647766113</ele>
        <time>2019-03-30T10:34:33.500Z</time>
      </trkpt>
      <trkpt lat="44.63916" lon="1.02322">
        <ele>185.2201385498</ele>
        <time>2019-03-30T10:34:41.589Z</time>
      </trkpt>
      <trkpt lat="44.63915" lon="1.02323">
        <ele>185.24403381348</ele>
        <time>2019-03-30T10:34:49.678Z</time>
      </trkpt>
      <trkpt lat="44.63915" lon="1.02323">
        <ele>185.2437286377</ele>
        <time>2019-03-30T10:34:57.767Z</time>
      </trkpt>
      <trkpt lat="44.639" lon="1.02337">
        <ele>185.69859313965</ele>
        <time>2019-03-30T10:35:05.859Z</time>
      </trkpt>
      <trkpt lat="44.63882" lon="1.02384">
        <ele>184.77467346191</ele>
        <time>2019-03-30T10:35:13.957Z</time>
      </trkpt>
      <trkpt lat="44.63891" lon="1.02613">
        <ele>186.27828979492</ele>
        <time>2019-03-30T10:35:22.081Z</time>
      </trkpt>
      <trkpt lat="44.63879" lon="1.02832">
        <ele>179.36027526855</ele>
        <time>2019-03-30T10:35:30.230Z</time>
      </trkpt>
      <trkpt lat="44.63855" lon="1.02993">
        <ele>183.27467346191</ele>
        <time>2019-03-30T10:35:38.398Z</time>
      </trkpt>
      <trkpt lat="44.63848" lon="1.03074">
        <ele>190.13316345215</ele>
        <time>2019-03-30T10:35:46.575Z</time>
      </trkpt>
      <trkpt lat="44.63851" lon="1.03082">
        <ele>190.2752532959</ele>
        <time>2019-03-30T10:35:54.754Z</time>
      </trkpt>
      <trkpt lat="44.63851" lon="1.03084">
        <ele>190.30470275879</ele>
        <time>2019-03-30T10:36:02.933Z</time>
      </trkpt>
      <trkpt lat="44.63852" lon="1.03085">
        <ele>190.32534790039</ele>
        <time>2019-03-30T10:36:11.112Z</time>
      </trkpt>
      <trkpt lat="44.63852" lon="1.03085">
        <ele>190.32414245605</ele>
        <time>2019-03-30T10:36:19.291Z</time>
      </trkpt>
      <trkpt lat="44.63861" lon="1.03109">
        <ele>190.74461364746</ele>
        <time>2019-03-30T10:36:27.473Z</time>
      </trkpt>
      <trkpt lat="44.63943" lon="1.03217">
        <ele>188.53240966797</ele>
        <time>2019-03-30T10:36:35.673Z</time>
      </trkpt>
      <trkpt lat="44.64002" lon="1.03263">
        <ele>186.55760192871</ele>
        <time>2019-03-30T10:36:43.884Z</time>
      </trkpt>
      <trkpt lat="44.64049" lon="1.03313">
        <ele>185.80484008789</ele>
        <time>2019-03-30T10:36:52.104Z</time>
      </trkpt>
      <trkpt lat="44.64065" lon="1.03339">
        <ele>184.15142822266</ele>
        <time>2019-03-30T10:37:00.328Z</time>
      </trkpt>
      <trkpt lat="44.6407" lon="1.03364">
        <ele>180.91221618652</ele>
        <time>2019-03-30T10:37:08.555Z</time>
      </trkpt>
      <trkpt lat="44.64069" lon="1.03399">
        <ele>176.6676940918</ele>
        <time>2019-03-30T10:37:16.786Z</time>
      </trkpt>
      <trkpt lat="44.64086" lon="1.03435">
        <ele>174.22192382812</ele>
        <time>2019-03-30T10:37:25.022Z</time>
      </trkpt>
      <trkpt lat="44.64112" lon="1.03424">
        <ele>176.0948638916</ele>
        <time>2019-03-30T10:37:33.263Z</time>
      </trkpt>
      <trkpt lat="44.64149" lon="1.03394">
        <ele>177.5220489502</ele>
        <time>2019-03-30T10:37:41.510Z</time>
      </trkpt>
      <trkpt lat="44.64167" lon="1.03431">
        <ele>175.77139282227</ele>
        <time>2019-03-30T10:37:49.762Z</time>
      </trkpt>
      <trkpt lat="44.64174" lon="1.03463">
        <ele>173.76545715332</ele>
        <time>2019-03-30T10:37:58.018Z</time>
      </trkpt>
      <trkpt lat="44.64164" lon="1.03513">
        <ele>170.74418640137</ele>
        <time>2019-03-30T10:38:06.280Z</time>
      </trkpt>
      <trkpt lat="44.64164" lon="1.03513">
        <ele>170.74409484863</ele>
        <time>2019-03-30T10:38:14.542Z</time>
      </trkpt>
      <trkpt lat="44.6415" lon="1.03517">
        <ele>170.10610961914</ele>
        <time>2019-03-30T10:38:22.807Z</time>
      </trkpt>
      <trkpt lat="44.64131" lon="1.03535">
        <ele>168.13691711426</ele>
        <time>2019-03-30T10:38:31.075Z</time>
      </trkpt>
      <trkpt lat="44.64126" lon="1.03598">
        <ele>165.53561401367</ele>
        <time>2019-03-30T10:38:39.350Z</time>
      </trkpt>
      <trkpt lat="44.64126" lon="1.03598">
        <ele>165.53561401367</ele>
        <time>2019-03-30T10:38:47.625Z</time>
      </trkpt>
      <trkpt lat="44.64112" lon="1.03702">
        <ele>168.41674804688</ele>
        <time>2019-03-30T10:38:55.912Z</time>
      </trkpt>
      <trkpt lat="44.6403" lon="1.03685">
        <ele>166.98789978027</ele>
        <time>2019-03-30T10:39:04.213Z</time>
      </trkpt>
      <trkpt lat="44.63994" lon="1.0368">
        <ele>166.08673095703</ele>
        <time>2019-03-30T10:39:12.520Z</time>
      </trkpt>
      <trkpt lat="44.63928" lon="1.03701">
        <ele>165.94793701172</ele>
        <time>2019-03-30T10:39:20.837Z</time>
      </trkpt>
      <trkpt lat="44.6387" lon="1.03755">
        <ele>161.84712219238</ele>
        <time>2019-03-30T10:39:29.165Z</time>
      </trkpt>
      <trkpt lat="44.63834" lon="1.03819">
        <ele>163.46446228027</ele>
        <time>2019-03-30T10:39:37.503Z</time>
      </trkpt>
      <trkpt lat="44.63737" lon="1.04054">
        <ele>163.67805480957</ele>
        <time>2019-03-30T10:39:45.872Z</time>
      </trkpt>
      <trkpt lat="44.63689" lon="1.0412">
        <ele>163.35549926758</ele>
        <time>2019-03-30T10:39:54.251Z</time>
      </trkpt>
      <trkpt lat="44.63657" lon="1.0415">
        <ele>164.67349243164</ele>
        <time>2019-03-30T10:40:02.637Z</time>
      </trkpt>
      <trkpt lat="44.63589" lon="1.04182">
        <ele>167.01594543457</ele>
        <time>2019-03-30T10:40:11.034Z</time>
      </trkpt>
      <trkpt lat="44.6338" lon="1.04226">
        <ele>159.53099060059</ele>
        <time>2019-03-30T10:40:19.465Z</time>
      </trkpt>
      <trkpt lat="44.63335" lon="1.04253">
        <ele>157.54698181152</ele>
        <time>2019-03-30T10:40:27.904Z</time>
      </trkpt>
      <trkpt lat="44.63317" lon="1.04266">
        <ele>157</ele>
        <time>2019-03-30T10:40:36.346Z</time>
      </trkpt>
      <trkpt lat="44.63255" lon="1.04344">
        <ele>160.22480773926</ele>
        <time>2019-03-30T10:40:44.801Z</time>
      </trkpt>
      <trkpt lat="44.63255" lon="1.04344">
        <ele>160.22370910645</ele>
        <time>2019-03-30T10:40:53.256Z</time>
      </trkpt>
      <trkpt lat="44.63114" lon="1.04536">
        <ele>157.93862915039</ele>
        <time>2019-03-30T10:41:01.743Z</time>
      </trkpt>
      <trkpt lat="44.63114" lon="1.04536">
        <ele>157.93801879883</ele>
        <time>2019-03-30T10:41:10.230Z</time>
      </trkpt>
      <trkpt lat="44.63071" lon="1.04597">
        <ele>161.74198913574</ele>
        <time>2019-03-30T10:41:18.727Z</time>
      </trkpt>
      <trkpt lat="44.62988" lon="1.04744">
        <ele>156.40979003906</ele>
        <time>2019-03-30T10:41:27.245Z</time>
      </trkpt>
      <trkpt lat="44.62962" lon="1.04771">
        <ele>153.06016540527</ele>
        <time>2019-03-30T10:41:35.768Z</time>
      </trkpt>
      <trkpt lat="44.6295" lon="1.04769">
        <ele>151.57693481445</ele>
        <time>2019-03-30T10:41:44.293Z</time>
      </trkpt>
      <trkpt lat="44.62939" lon="1.04777">
        <ele>151.93092346191</ele>
        <time>2019-03-30T10:41:52.820Z</time>
      </trkpt>
      <trkpt lat="44.62934" lon="1.048">
        <ele>152.21788024902</ele>
        <time>2019-03-30T10:42:01.350Z</time>
      </trkpt>
      <trkpt lat="44.62939" lon="1.04815">
        <ele>152.30278015137</ele>
        <time>2019-03-30T10:42:09.882Z</time>
      </trkpt>
      <trkpt lat="44.62957" lon="1.04823">
        <ele>152.63673400879</ele>
        <time>2019-03-30T10:42:18.417Z</time>
      </trkpt>
      <trkpt lat="44.62976" lon="1.04849">
        <ele>154.36807250977</ele>
        <time>2019-03-30T10:42:26.956Z</time>
      </trkpt>
      <trkpt lat="44.63053" lon="1.05031">
        <ele>156.45429992676</ele>
        <time>2019-03-30T10:42:35.519Z</time>
      </trkpt>
      <trkpt lat="44.63098" lon="1.05103">
        <ele>157.69874572754</ele>
        <time>2019-03-30T10:42:44.093Z</time>
      </trkpt>
      <trkpt lat="44.63098" lon="1.05103">
        <ele>157.6975402832</ele>
        <time>2019-03-30T10:42:52.667Z</time>
      </trkpt>
      <trkpt lat="44.63131" lon="1.05146">
        <ele>157.375</ele>
        <time>2019-03-30T10:43:01.248Z</time>
      </trkpt>
      <trkpt lat="44.6317" lon="1.05179">
        <ele>158.54638671875</ele>
        <time>2019-03-30T10:43:09.837Z</time>
      </trkpt>
      <trkpt lat="44.63305" lon="1.05255">
        <ele>158.28695678711</ele>
        <time>2019-03-30T10:43:18.449Z</time>
      </trkpt>
      <trkpt lat="44.63373" lon="1.05292">
        <ele>157.20603942871</ele>
        <time>2019-03-30T10:43:27.073Z</time>
      </trkpt>
      <trkpt lat="44.63432" lon="1.05326">
        <ele>158.23822021484</ele>
        <time>2019-03-30T10:43:35.707Z</time>
      </trkpt>
      <trkpt lat="44.63543" lon="1.05401">
        <ele>158.86906433105</ele>
        <time>2019-03-30T10:43:44.361Z</time>
      </trkpt>
      <trkpt lat="44.6363" lon="1.05515">
        <ele>157.27980041504</ele>
        <time>2019-03-30T10:43:53.034Z</time>
      </trkpt>
      <trkpt lat="44.63766" lon="1.05736">
        <ele>157.52961730957</ele>
        <time>2019-03-30T10:44:01.740Z</time>
      </trkpt>
      <trkpt lat="44.63766" lon="1.05736">
        <ele>157.52941894531</ele>
        <time>2019-03-30T10:44:10.446Z</time>
      </trkpt>
      <trkpt lat="44.63881" lon="1.05929">
        <ele>160.71235656738</ele>
        <time>2019-03-30T10:44:19.181Z</time>
      </trkpt>
      <trkpt lat="44.63893" lon="1.06013">
        <ele>159.55326843262</ele>
        <time>2019-03-30T10:44:27.926Z</time>
      </trkpt>
      <trkpt lat="44.63892" lon="1.06023">
        <ele>159.43742370605</ele>
        <time>2019-03-30T10:44:36.672Z</time>
      </trkpt>
      <trkpt lat="44.63872" lon="1.06091">
        <ele>161.91020202637</ele>
        <time>2019-03-30T10:44:45.426Z</time>
      </trkpt>
      <trkpt lat="44.63852" lon="1.06121">
        <ele>164.92327880859</ele>
        <time>2019-03-30T10:44:54.185Z</time>
      </trkpt>
      <trkpt lat="44.63685" lon="1.06254">
        <ele>170.43807983398</ele>
        <time>2019-03-30T10:45:02.975Z</time>
      </trkpt>
      <trkpt lat="44.63604" lon="1.06312">
        <ele>172.20190429688</ele>
        <time>2019-03-30T10:45:11.779Z</time>
      </trkpt>
      <trkpt lat="44.63539" lon="1.06347">
        <ele>169.7896270752</ele>
        <time>2019-03-30T10:45:20.594Z</time>
      </trkpt>
      <trkpt lat="44.63491" lon="1.06406">
        <ele>172.06910705566</ele>
        <time>2019-03-30T10:45:29.419Z</time>
      </trkpt>
      <trkpt lat="44.63442" lon="1.06501">
        <ele>174.47152709961</ele>
        <time>2019-03-30T10:45:38.258Z</time>
      </trkpt>
      <trkpt lat="44.63286" lon="1.06688">
        <ele>178.75390625</ele>
        <time>2019-03-30T10:45:47.130Z</time>
      </trkpt>
      <trkpt lat="44.63259" lon="1.06732">
        <ele>178.14315795898</ele>
        <time>2019-03-30T10:45:56.008Z</time>
      </trkpt>
      <trkpt lat="44.63247" lon="1.06802">
        <ele>177.5577545166</ele>
        <time>2019-03-30T10:46:04.895Z</time>
      </trkpt>
      <trkpt lat="44.63247" lon="1.06802">
        <ele>177.5570526123</ele>
        <time>2019-03-30T10:46:13.782Z</time>
      </trkpt>
      <trkpt lat="44.63233" lon="1.06971">
        <ele>190.82057189941</ele>
        <time>2019-03-30T10:46:22.688Z</time>
      </trkpt>
      <trkpt lat="44.63233" lon="1.06971">
        <ele>190.82098388672</ele>
        <time>2019-03-30T10:46:31.594Z</time>
      </trkpt>
      <trkpt lat="44.63222" lon="1.07079">
        <ele>197.30938720703</ele>
        <time>2019-03-30T10:46:40.512Z</time>
      </trkpt>
      <trkpt lat="44.63222" lon="1.0708">
        <ele>197.42913818359</ele>
        <time>2019-03-30T10:46:49.431Z</time>
      </trkpt>
      <trkpt lat="44.63222" lon="1.07082">
        <ele>197.51359558105</ele>
        <time>2019-03-30T10:46:58.350Z</time>
      </trkpt>
      <trkpt lat="44.63222" lon="1.07082">
        <ele>197.51208496094</ele>
        <time>2019-03-30T10:47:07.269Z</time>
      </trkpt>
      <trkpt lat="44.63211" lon="1.07184">
        <ele>203.56729125977</ele>
        <time>2019-03-30T10:47:16.200Z</time>
      </trkpt>
      <trkpt lat="44.63211" lon="1.07184">
        <ele>203.56860351562</ele>
        <time>2019-03-30T10:47:25.131Z</time>
      </trkpt>
      <trkpt lat="44.63208" lon="1.07204">
        <ele>204.61639404297</ele>
        <time>2019-03-30T10:47:34.064Z</time>
      </trkpt>
      <trkpt lat="44.6317" lon="1.07365">
        <ele>206.92083740234</ele>
        <time>2019-03-30T10:47:43.016Z</time>
      </trkpt>
      <trkpt lat="44.63153" lon="1.07439">
        <ele>210.46578979492</ele>
        <time>2019-03-30T10:47:51.977Z</time>
      </trkpt>
      <trkpt lat="44.63136" lon="1.07539">
        <ele>213.88645935059</ele>
        <time>2019-03-30T10:48:00.950Z</time>
      </trkpt>
      <trkpt lat="44.63136" lon="1.07539">
        <ele>213.88777160645</ele>
        <time>2019-03-30T10:48:09.923Z</time>
      </trkpt>
      <trkpt lat="44.63111" lon="1.07641">
        <ele>215.8712310791</ele>
        <time>2019-03-30T10:48:18.908Z</time>
      </trkpt>
      <trkpt lat="44.63076" lon="1.07749">
        <ele>215.82307434082</ele>
        <time>2019-03-30T10:48:27.907Z</time>
      </trkpt>
      <trkpt lat="44.63038" lon="1.07842">
        <ele>220.90745544434</ele>
        <time>2019-03-30T10:48:36.918Z</time>
      </trkpt>
      <trkpt lat="44.63019" lon="1.07897">
        <ele>220.49674987793</ele>
        <time>2019-03-30T10:48:45.936Z</time>
      </trkpt>
      <trkpt lat="44.63" lon="1.07959">
        <ele>219.8939666748</ele>
        <time>2019-03-30T10:48:54.962Z</time>
      </trkpt>
      <trkpt lat="44.63" lon="1.07959">
        <ele>219.89436340332</ele>
        <time>2019-03-30T10:49:03.988Z</time>
      </trkpt>
      <trkpt lat="44.62993" lon="1.07972">
        <ele>220.84693908691</ele>
        <time>2019-03-30T10:49:13.016Z</time>
      </trkpt>
    </trkseg>
  </trk>
</gpx>